Data for 05/13/2010

Time Sea-Level Adjusted Pressure Absolute Pressure Temperature Relative Humidity Dew Point Precipitation   
(mb) (inHg) (mb) (inHg) (C) (F) (%) (C) (F) (mm) (in)
00:01 1023 30.21 852 25.16 0.9 33.7 85 -1.3 29.6 1.279 0.05
00:02 1023 30.21 852 25.16 0.9 33.6 85 -1.3 29.7 1.256 0.049
00:03 1023 30.21 852 25.16 0.9 33.7 85 -1.3 29.7 1.313 0.052
00:04 1023 30.21 852 25.16 1 33.7 85 -1.2 29.8 1.386 0.055
00:05 1023 30.21 852 25.16 1 33.8 85 -1.2 29.8 1.42 0.056
00:06 1023 30.21 852 25.16 1.1 34 85 -1.1 30 1.494 0.059
00:07 1023 30.21 852 25.16 1.3 34.3 84 -1.1 30 1.658 0.065
00:08 1023 30.21 852 25.16 1.5 34.8 82 -1.2 29.9 1.907 0.075
00:09 1023 30.21 852 25.16 1.8 35.2 80 -1.2 29.8 2.088 0.082
00:10 1023 30.21 852 25.16 2 35.5 80 -1.2 29.8 2.315 0.091
00:11 1023 30.21 852 25.16 2.2 35.9 78 -1.4 29.6 2.496 0.098
00:12 1023 30.21 852 25.16 2.3 36.1 77 -1.3 29.6 2.587 0.102
00:13 1023 30.21 852 25.16 2.3 36.2 77 -1.2 29.8 2.582 0.102
00:14 1023 30.21 852 25.16 2.3 36.1 77 -1.3 29.7 2.639 0.104
00:15 1023 30.21 852 25.16 2.3 36.2 77 -1.3 29.7 2.689 0.106
00:16 1023 30.21 852 25.16 2.4 36.3 77 -1.3 29.7 2.723 0.107
00:17 1023 30.21 852 25.16 2.4 36.4 77 -1.3 29.7 2.757 0.109
00:18 1023 30.21 852 25.16 2.4 36.4 76 -1.4 29.5 2.729 0.107
00:19 1023 30.21 852 25.16 2.3 36.2 76 -1.4 29.4 2.572 0.101
00:20 1023 30.21 852 25.16 2.1 35.8 77 -1.5 29.4 2.408 0.095
00:21 1023 30.21 852 25.16 2 35.5 78 -1.5 29.4 2.312 0.091
00:22 1023 30.21 852 25.16 1.8 35.2 79 -1.4 29.5 2.165 0.085
00:23 1023 30.21 852 25.16 1.7 35.1 80 -1.4 29.5 2.148 0.085
00:24 1023 30.21 852 25.16 1.9 35.3 79 -1.4 29.5 2.188 0.086
00:25 1023 30.21 852 25.16 1.9 35.3 79 -1.4 29.5 2.2 0.087
00:26 1023 30.21 852 25.16 1.9 35.4 79 -1.4 29.4 2.222 0.087
00:27 1023 30.21 852 25.16 1.8 35.3 79 -1.4 29.5 2.195 0.086
00:28 1023 30.21 852 25.16 1.8 35.3 79 -1.4 29.5 2.15 0.085
00:29 1023 30.21 852 25.16 1.8 35.2 80 -1.3 29.6 2.099 0.083
00:30 1023 30.21 852 25.16 1.7 35.1 80 -1.4 29.5 2.059 0.081
00:31 1023 30.21 852 25.16 1.7 35.1 81 -1.3 29.7 2.059 0.081
00:32 1023 30.21 852 25.16 1.7 35 80 -1.4 29.5 2.031 0.08
00:33 1023 30.21 852 25.16 1.6 34.9 80 -1.4 29.4 1.959 0.077
00:34 1023 30.21 852 25.16 1.5 34.7 81 -1.4 29.5 1.852 0.073
00:35 1023 30.21 852 25.16 1.4 34.5 81 -1.4 29.4 1.744 0.069
00:36 1023 30.21 852 25.16 1.3 34.4 82 -1.5 29.4 1.683 0.066
00:37 1023 30.21 852 25.16 1.2 34.2 82 -1.6 29.2 1.593 0.063
00:38 1023 30.21 852 25.16 1.1 33.9 83 -1.6 29.2 1.429 0.056
00:39 1023 30.21 852 25.16 0.9 33.6 84 -1.5 29.3 1.327 0.052
00:40 1023 30.21 852 25.16 0.8 33.5 85 -1.4 29.4 1.242 0.049
00:41 1023 30.21 852 25.16 0.7 33.3 85 -1.5 29.3 1.146 0.045
00:42 1023 30.21 852 25.16 0.7 33.2 85 -1.6 29.2 1.039 0.041
00:43 1023 30.21 852 25.16 0.6 33 85 -1.7 28.9 .932 0.037
00:44 1023 30.21 852 25.16 0.4 32.8 86 -1.7 29 .819 0.032
00:45 1023 30.21 852 25.16 0.4 32.7 87 -1.5 29.2 .836 0.033
00:46 1023 30.21 852 25.16 0.4 32.7 87 -1.6 29.2 .819 0.032
00:47 1023 30.21 852 25.16 0.4 32.7 86 -1.7 29 .825 0.032
00:48 1023 30.21 852 25.16 0.4 32.7 86 -1.6 29.1 .763 0.03
00:49 1023 30.21 852 25.16 0.4 32.7 87 -1.5 29.2 .826 0.033
00:50 1023 30.21 852 25.16 0.5 32.8 86 -1.6 29.1 .826 0.033
00:51 1023 30.21 852 25.16 0.5 33 86 -1.5 29.3 .838 0.033
00:52 1023 30.21 852 25.16 0.6 33.1 86 -1.5 29.3 .911 0.036
00:53 1023 30.21 852 25.16 0.6 33.1 85 -1.6 29.2 .934 0.037
00:54 1023 30.21 852 25.16 0.7 33.2 85 -1.6 29.2 1.014 0.04
00:55 1023 30.21 852 25.16 0.7 33.2 86 -1.4 29.4 1.014 0.04
00:56 1023 30.21 852 25.16 0.7 33.3 85 -1.5 29.4 1.036 0.041
00:57 1023 30.21 852 25.16 0.7 33.3 85 -1.5 29.3 1.099 0.043
00:58 1023 30.21 852 25.16 0.8 33.4 85 -1.5 29.3 1.076 0.042
00:59 1023 30.21 852 25.16 0.7 33.3 85 -1.5 29.3 1.059 0.042
01:00 1023 30.21 852 25.16 0.7 33.3 86 -1.4 29.5 1.082 0.043
01:01 1023 30.21 852 25.16 0.7 33.3 86 -1.4 29.5 1.082 0.043
01:02 1023 30.21 852 25.16 0.8 33.4 85 -1.4 29.5 1.122 0.044
01:03 1023 30.21 852 25.16 0.8 33.4 86 -1.3 29.6 1.094 0.043
01:04 1023 30.21 852 25.16 0.8 33.4 86 -1.3 29.6 1.133 0.045
01:05 1023 30.21 852 25.16 0.8 33.4 86 -1.3 29.7 1.156 0.046
01:06 1023 30.21 852 25.16 0.8 33.5 85 -1.4 29.6 1.156 0.046
01:07 1023 30.21 852 25.16 0.8 33.5 85 -1.4 29.5 1.162 0.046
01:08 1023 30.21 852 25.16 0.8 33.4 86 -1.3 29.7 1.105 0.044
01:09 1023 30.21 852 25.16 0.8 33.4 84 -1.6 29.1 1.14 0.045
01:10 1023 30.21 852 25.16 0.8 33.4 85 -1.5 29.4 1.066 0.042
01:11 1023 30.21 852 25.16 0.7 33.3 85 -1.4 29.4 1.111 0.044
01:12 1023 30.21 852 25.16 0.8 33.4 85 -1.4 29.5 1.157 0.046
01:13 1023 30.21 852 25.16 0.8 33.5 85 -1.4 29.4 1.162 0.046
01:14 1023 30.21 852 25.16 0.9 33.6 85 -1.4 29.4 1.202 0.047
01:15 1023 30.21 852 25.16 0.9 33.6 84 -1.5 29.3 1.174 0.046
01:16 1023 30.21 852 25.16 0.8 33.5 83 -1.7 28.9 1.077 0.042
01:17 1023 30.21 852 25.16 0.6 33.1 85 -1.6 29.1 .97 0.038
01:18 1023 30.21 852 25.16 0.6 33 85 -1.7 29 .857 0.034
01:19 1023 30.21 852 25.16 0.4 32.7 85 -1.8 28.8 .727 0.029
01:20 1023 30.21 852 25.16 0.3 32.6 86 -1.8 28.8 .659 0.026
01:21 1023 30.21 852 25.16 0.2 32.4 86 -1.8 28.7 .579 0.023
01:22 1023 30.21 852 25.16 0.1 32.2 87 -1.8 28.8 .5 0.02
01:23 1023 30.21 852 25.16 0.1 32.1 87 -1.9 28.6 .415 0.016
01:24 1023 30.21 852 25.16 0 32 88 -1.7 29 .41 0.016
01:25 1023 30.21 852 25.16 0 32.1 88 -1.7 29 .41 0.016
01:26 1023 30.21 852 25.16 0.1 32.1 88 -1.7 29 .478 0.019
01:27 1023 30.21 852 25.16 0.1 32.1 87 -1.9 28.6 .398 0.016
01:28 1023 30.21 852 25.16 0 32 88 -1.8 28.8 .376 0.015
01:29 1023 30.21 852 25.16 -0 32 88 -1.8 28.8 .353 0.014
01:30 1023 30.21 852 25.16 -0 31.9 88 -1.8 28.8 .285 0.011
01:31 1023 30.21 852 25.16 -0.1 31.9 88 -1.9 28.6 .268 0.011
01:32 1023 30.21 852 25.16 -0.1 31.9 88 -1.8 28.7 .302 0.012
01:33 1023 30.21 852 25.16 -0 31.9 88 -1.8 28.7 .285 0.011
01:34 1023 30.21 852 25.16 -0.2 31.7 87 -2.1 28.2 .166 0.007
01:35 1023 30.21 852 25.16 -0.3 31.4 87 -2.2 28.1 .008 0
01:36 1023 30.21 852 25.16 -0.5 31 88 -2.3 27.8 -.173 -0.007
01:37 1023 30.21 852 25.16 -0.7 30.8 89 -2.3 27.9 -.298 -0.012
01:38 1023 30.21 852 25.16 -0.7 30.7 89 -2.4 27.7 -.36 -0.014
01:39 1023 30.21 852 25.16 -0.9 30.4 90 -2.4 27.7 -.485 -0.019
01:40 1023 30.21 852 25.16 -0.8 30.5 91 -2.2 28.1 -.451 -0.018
01:41 1023 30.21 852 25.16 -0.8 30.6 91 -2.1 28.3 -.422 -0.017
01:42 1023 30.21 852 25.16 -0.7 30.7 91 -2 28.4 -.343 -0.014
01:43 1023 30.21 852 25.16 -0.6 30.8 91 -1.9 28.6 -.292 -0.011
01:44 1023 30.21 852 25.16 -0.6 30.9 91 -1.9 28.5 -.247 -0.01
01:45 1023 30.21 852 25.16 -0.6 31 91 -1.9 28.5 -.247 -0.01
01:46 1023 30.21 852 25.16 -0.5 31 91 -1.8 28.7 -.179 -0.007
01:47 1022 30.18 852 25.16 -0.5 31.1 91 -1.8 28.7 -.145 -0.006
01:48 1022 30.18 852 25.16 -0.5 31.1 91 -1.8 28.7 -.145 -0.006
01:49 1022 30.18 852 25.16 -0.5 31.1 91 -1.8 28.8 -.128 -0.005
01:50 1022 30.18 852 25.16 -0.4 31.2 91 -1.8 28.8 -.128 -0.005
01:51 1022 30.18 852 25.16 -0.5 31.2 90 -1.8 28.7 -.128 -0.005
01:52 1022 30.18 852 25.16 -0.4 31.2 91 -1.7 28.9 -.133 -0.005
01:53 1022 30.18 852 25.16 -0.4 31.3 91 -1.7 28.9 -.087 -0.003
01:54 1022 30.18 852 25.16 -0.4 31.3 90 -1.8 28.7 -.098 -0.004
01:55 1022 30.18 852 25.16 -0.5 31.1 90 -1.9 28.5 -.166 -0.007
01:56 1022 30.18 852 25.16 -0.6 31 90 -2 28.4 -.193 -0.008
01:57 1022 30.18 852 25.16 -0.6 30.9 90 -2.1 28.2 -.278 -0.011
01:58 1022 30.18 852 25.16 -0.7 30.8 90 -2.1 28.2 -.368 -0.014
01:59 1022 30.18 852 25.16 -0.6 30.9 92 -1.7 28.9 -.328 -0.013
02:00 1022 30.18 852 25.16 -0.5 31.2 91 -1.8 28.8 -.278 -0.011
02:01 1022 30.18 852 25.16 -0.4 31.3 91 -1.7 29 -.203 -0.008
02:02 1022 30.18 852 25.16 -0.3 31.5 90 -1.8 28.8 -.158 -0.006
02:03 1022 30.18 852 25.16 -0.3 31.5 89 -1.9 28.6 -.169 -0.007
02:04 1022 30.18 852 25.16 -0.2 31.6 89 -1.9 28.6 -.118 -0.005
02:05 1022 30.18 852 25.16 -0.2 31.6 88 -2 28.5 -.072 -0.003
02:06 1022 30.18 852 25.16 -0.2 31.6 87 -2.1 28.3 -.101 -0.004
02:07 1022 30.18 852 25.16 -0.3 31.5 87 -2.2 28.1 -.129 -0.005
02:08 1022 30.18 852 25.16 -0.4 31.4 87 -2.3 27.9 -.197 -0.008
02:09 1022 30.18 852 25.16 -0.5 31.2 87 -2.3 27.8 -.27 -0.011
02:10 1022 30.18 852 25.16 -0.5 31 88 -2.3 27.8 -.325 -0.013
02:11 1022 30.18 852 25.16 -0.6 31 88 -2.2 28 -.387 -0.015
02:12 1022 30.18 852 25.16 -0.6 31 87 -2.5 27.5 -.387 -0.015
02:13 1022 30.18 852 25.16 -0.6 30.9 89 -2.1 28.2 -.426 -0.017
02:14 1022 30.18 852 25.16 -0.5 31.1 88 -2.2 28 -.352 -0.014
02:15 1022 30.18 852 25.16 -0.4 31.2 88 -2.2 28.1 -.329 -0.013
02:16 1022 30.18 852 25.16 -0.4 31.3 87 -2.3 27.8 -.306 -0.012
02:17 1022 30.18 852 25.16 -0.4 31.3 88 -2.2 28.1 -.238 -0.009
02:18 1022 30.18 852 25.16 -0.3 31.4 84 -2.7 27.2 -.232 -0.009
02:19 1022 30.18 852 25.16 -0.5 31.1 85 -2.8 26.9 -.412 -0.016
02:20 1022 30.18 852 25.16 -0.8 30.6 85 -2.9 26.8 -.582 -0.023
02:21 1022 30.18 852 25.16 -0.9 30.3 86 -3.1 26.5 -.758 -0.03
02:22 1022 30.18 851 25.13 -1.1 30 87 -3 26.6 -.927 -0.036
02:23 1022 30.18 852 25.16 -1.3 29.8 86 -3.3 26.1 -1.006 -0.04
02:24 1022 30.18 851 25.13 -1.3 29.6 89 -2.9 26.7 -1.125 -0.044
02:25 1022 30.18 851 25.13 -1.2 29.8 89 -2.8 27 -1.045 -0.041
02:26 1022 30.18 851 25.13 -1.1 30 89 -2.7 27.2 -.915 -0.036
02:27 1022 30.18 851 25.13 -1 30.2 87 -2.9 26.8 -.83 -0.033
02:28 1022 30.18 851 25.13 -1 30.2 88 -2.7 27.1 -.83 -0.033
02:29 1022 30.18 851 25.13 -0.9 30.3 87 -2.9 26.9 -.779 -0.031
02:30 1022 30.18 851 25.13 -0.9 30.4 87 -2.8 26.9 -.762 -0.03
02:31 1022 30.18 851 25.13 -0.9 30.3 86 -3 26.6 -.727 -0.029
02:32 1022 30.18 851 25.13 -1.1 30.1 86 -3.2 26.2 -.841 -0.033
02:33 1022 30.18 851 25.13 -1.3 29.6 84 -3.7 25.3 -.999 -0.039
02:34 1022 30.18 851 25.13 -1.6 29.1 84 -3.9 24.9 -1.31 -0.052
02:35 1022 30.18 851 25.13 -2 28.5 84 -4.3 24.2 -1.628 -0.064
02:36 1022 30.18 851 25.13 -2.3 27.9 86 -4.4 24.2 -1.911 -0.075
02:37 1022 30.18 851 25.13 -2.5 27.5 86 -4.6 23.8 -2.092 -0.082
02:38 1022 30.18 851 25.13 -2.8 27 86 -4.8 23.4 -2.307 -0.091
02:39 1022 30.18 851 25.13 -2.9 26.7 87 -4.8 23.4 -2.516 -0.099
02:40 1022 30.18 851 25.13 -3.1 26.4 88 -4.8 23.4 -2.63 -0.104
02:41 1022 30.18 851 25.13 -3.2 26.2 89 -4.7 23.5 -2.788 -0.11
02:42 1022 30.18 851 25.13 -3.3 26 90 -4.8 23.4 -2.89 -0.114
02:43 1022 30.18 851 25.13 -3.4 25.9 91 -4.6 23.7 -2.969 -0.117
02:44 1022 30.18 851 25.13 -3.3 26 93 -4.3 24.3 -2.913 -0.115
02:45 1022 30.18 851 25.13 -3.2 26.3 94 -4 24.8 -2.799 -0.11
02:46 1022 30.18 851 25.13 -3 26.5 94 -3.9 25 -2.731 -0.108
02:47 1022 30.18 851 25.13 -2.9 26.8 94 -3.8 25.2 -2.59 -0.102
02:48 1022 30.18 851 25.13 -2.9 26.7 91 -4.1 24.5 -2.624 -0.103
02:49 1022 30.18 851 25.13 -3 26.7 91 -4.2 24.5 -2.675 -0.105
02:50 1022 30.18 851 25.13 -2.9 26.8 93 -3.8 25.1 -2.607 -0.103
02:51 1022 30.18 851 25.13 -2.7 27.1 93 -3.7 25.3 -2.431 -0.096
02:52 1022 30.18 851 25.13 -2.5 27.4 92 -3.7 25.4 -2.301 -0.091
02:53 1022 30.18 851 25.13 -2.5 27.5 90 -3.9 24.9 -2.25 -0.089
02:54 1022 30.18 851 25.13 -2.6 27.3 90 -4 24.8 -2.335 -0.092
02:55 1022 30.18 851 25.13 -2.5 27.4 90 -3.9 25 -2.272 -0.089
02:56 1022 30.18 851 25.13 -2.5 27.5 90 -3.9 24.9 -2.272 -0.089
02:57 1022 30.18 851 25.13 -2.5 27.5 90 -4 24.8 -2.261 -0.089
02:58 1022 30.18 851 25.13 -2.5 27.4 88 -4.2 24.5 -2.261 -0.089
02:59 1022 30.18 851 25.13 -2.6 27.3 91 -3.9 25 -2.34 -0.092
03:00 1022 30.18 851 25.13 -2.5 27.5 89 -4 24.8 -2.21 -0.087
03:01 1022 30.18 851 25.13 -2.5 27.5 89 -4 24.8 -2.148 -0.085
03:02 1022 30.18 851 25.13 -2.4 27.6 90 -3.9 24.9 -2.136 -0.084
03:03 1022 30.18 851 25.13 -2.4 27.8 89 -3.9 25 -2.068 -0.081
03:04 1022 30.18 851 25.13 -2.3 27.8 89 -4 24.9 -2.057 -0.081
03:05 1022 30.18 851 25.13 -2.3 27.8 88 -4.1 24.7 -2.057 -0.081
03:06 1022 30.18 851 25.13 -2.4 27.7 88 -4.1 24.6 -2.102 -0.083
03:07 1022 30.18 851 25.13 -2.5 27.5 88 -4.3 24.3 -2.21 -0.087
03:08 1022 30.18 851 25.13 -2.7 27.2 88 -4.4 24 -2.323 -0.091
03:09 1022 30.18 851 25.13 -2.8 26.9 89 -4.3 24.2 -2.465 -0.097
03:10 1022 30.18 851 25.13 -2.8 26.9 90 -4.3 24.3 -2.425 -0.095
03:11 1022 30.18 851 25.13 -2.8 26.9 90 -4.3 24.3 -2.436 -0.096
03:12 1022 30.18 851 25.13 -2.9 26.8 89 -4.4 24 -2.538 -0.1
03:13 1022 30.18 851 25.13 -3 26.6 89 -4.6 23.8 -2.601 -0.102
03:14 1022 30.18 851 25.13 -3.1 26.4 89 -4.6 23.6 -2.713 -0.107
03:15 1022 30.18 851 25.13 -3.2 26.3 91 -4.4 24 -2.775 -0.109
03:16 1022 30.18 851 25.13 -3.1 26.4 90 -4.5 23.8 -2.764 -0.109
03:17 1022 30.18 851 25.13 -3.1 26.3 90 -4.6 23.8 -2.757 -0.109
03:18 1022 30.18 851 25.13 -3.1 26.4 89 -4.6 23.7 -2.751 -0.108
03:19 1022 30.18 851 25.13 -3.1 26.5 91 -4.3 24.3 -2.661 -0.105
03:20 1022 30.18 851 25.13 -2.8 26.9 90 -4.3 24.2 -2.45 -0.096
03:21 1022 30.18 851 25.13 -2.7 27.1 89 -4.3 24.2 -2.337 -0.092
03:22 1022 30.18 851 25.13 -2.7 27.2 87 -4.5 23.8 -2.348 -0.092
03:23 1022 30.18 851 25.13 -2.8 27 87 -4.6 23.7 -2.512 -0.099
03:24 1022 30.18 851 25.13 -2.9 26.9 88 -4.6 23.8 -2.495 -0.098
03:25 1022 30.18 851 25.13 -2.9 26.8 88 -4.6 23.6 -2.529 -0.1
03:26 1022 30.18 851 25.13 -3 26.6 88 -4.8 23.4 -2.613 -0.103
03:27 1022 30.18 851 25.13 -3.1 26.4 88 -4.8 23.4 -2.749 -0.108
03:28 1022 30.18 851 25.13 -3.2 26.2 89 -4.8 23.3 -2.817 -0.111
03:29 1022 30.18 851 25.13 -3.2 26.2 90 -4.7 23.6 -2.868 -0.113
03:30 1022 30.18 851 25.13 -3.2 26.3 90 -4.6 23.7 -2.834 -0.112
03:31 1022 30.18 851 25.13 -3.1 26.5 90 -4.5 23.9 -2.675 -0.105
03:32 1022 30.18 851 25.13 -3 26.6 88 -4.7 23.6 -2.703 -0.106
03:33 1022 30.18 851 25.13 -3 26.5 90 -4.5 23.9 -2.68 -0.106
03:34 1022 30.18 851 25.13 -2.8 26.9 90 -4.2 24.4 -2.454 -0.097
03:35 1022 30.18 851 25.13 -2.6 27.2 89 -4.2 24.4 -2.294 -0.09
03:36 1022 30.18 851 25.13 -2.5 27.5 88 -4.3 24.3 -2.226 -0.088
03:37 1022 30.18 851 25.13 -2.5 27.5 88 -4.2 24.4 -2.169 -0.085
03:38 1022 30.18 851 25.13 -2.5 27.6 87 -4.3 24.3 -2.158 -0.085
03:39 1022 30.18 851 25.13 -2.4 27.7 88 -4.2 24.5 -2.062 -0.081
03:40 1022 30.18 851 25.13 -2.3 27.9 87 -4.1 24.6 -1.971 -0.078
03:41 1022 30.18 851 25.13 -2.3 27.8 88 -4.1 24.7 -1.919 -0.076
03:42 1022 30.18 851 25.13 -2.2 28 88 -4 24.7 -1.89 -0.074
03:43 1022 30.18 851 25.13 -2.1 28.2 86 -4.1 24.6 -1.76 -0.069
03:44 1022 30.18 851 25.13 -2.1 28.1 85 -4.3 24.2 -1.804 -0.071
03:45 1022 30.18 851 25.13 -2.3 27.9 86 -4.4 24.2 -1.923 -0.076
03:46 1022 30.18 851 25.13 -2.4 27.7 86 -4.5 24 -2.054 -0.081
03:47 1022 30.18 851 25.13 -2.5 27.5 85 -4.7 23.6 -2.155 -0.085
03:48 1022 30.18 851 25.13 -2.6 27.3 87 -4.5 23.9 -2.262 -0.089
03:49 1022 30.18 851 25.13 -2.7 27.2 87 -4.5 23.8 -2.33 -0.092
03:50 1022 30.18 851 25.13 -2.7 27.1 88 -4.5 23.9 -2.375 -0.094
03:51 1022 30.18 851 25.13 -2.7 27.1 88 -4.5 23.9 -2.375 -0.094
03:52 1022 30.18 851 25.13 -2.7 27.1 88 -4.4 24 -2.386 -0.094
03:53 1022 30.18 851 25.13 -2.7 27.1 89 -4.3 24.3 -2.324 -0.091
03:54 1022 30.18 851 25.13 -2.6 27.4 88 -4.2 24.4 -2.21 -0.087
03:55 1022 30.18 851 25.13 -2.5 27.5 88 -4.2 24.5 -2.148 -0.085
03:56 1022 30.18 851 25.13 -2.4 27.6 88 -4.2 24.5 -2.102 -0.083
03:57 1022 30.18 851 25.13 -2.4 27.7 87 -4.2 24.4 -2.074 -0.082
03:58 1022 30.18 851 25.13 -2.5 27.6 86 -4.4 24.1 -2.113 -0.083
03:59 1022 30.18 851 25.13 -2.5 27.5 87 -4.3 24.2 -2.159 -0.085
04:00 1022 30.18 851 25.13 -2.5 27.5 88 -4.1 24.5 -2.159 -0.085
04:01 1022 30.18 851 25.13 -2.4 27.7 88 -4.2 24.5 -2.09 -0.082
04:02 1022 30.18 851 25.13 -2.4 27.6 86 -4.5 23.9 -2.124 -0.084
04:03 1022 30.18 851 25.13 -2.6 27.3 86 -4.6 23.7 -2.249 -0.089
04:04 1022 30.18 851 25.13 -2.8 27 86 -4.7 23.5 -2.413 -0.095
04:05 1022 30.18 851 25.13 -2.9 26.7 86 -4.9 23.1 -2.543 -0.1
04:06 1022 30.18 851 25.13 -3.1 26.3 87 -5 23 -2.793 -0.11
04:07 1022 30.18 851 25.13 -3.2 26.2 90 -4.7 23.6 -2.809 -0.111
04:08 1022 30.18 851 25.13 -3.1 26.4 90 -4.5 23.9 -2.702 -0.106
04:09 1022 30.18 851 25.13 -2.9 26.8 89 -4.4 24 -2.577 -0.101
04:10 1022 30.18 851 25.13 -2.8 26.9 89 -4.3 24.2 -2.498 -0.098
04:11 1022 30.18 851 25.13 -2.8 27 86 -4.8 23.3 -2.452 -0.097
04:12 1022 30.18 851 25.13 -3 26.6 87 -4.9 23.1 -2.792 -0.11
04:13 1022 30.18 851 25.13 -3.1 26.4 89 -4.7 23.5 -2.798 -0.11
04:14 1022 30.18 851 25.13 -3.1 26.4 89 -4.6 23.7 -2.753 -0.108
04:15 1022 30.18 851 25.13 -3.1 26.5 89 -4.7 23.6 -2.707 -0.107
04:16 1022 30.18 851 25.13 -3.1 26.4 88 -4.8 23.4 -2.73 -0.107
04:17 1022 30.18 851 25.13 -3.1 26.4 89 -4.7 23.5 -2.741 -0.108
04:18 1022 30.18 851 25.13 -3.1 26.4 88 -4.8 23.4 -2.718 -0.107
04:19 1022 30.18 851 25.13 -3.2 26.2 87 -5.1 22.8 -2.843 -0.112
04:20 1022 30.18 851 25.13 -3.4 26 87 -5.2 22.7 -2.951 -0.116
04:21 1022 30.18 851 25.13 -3.5 25.7 87 -5.4 22.3 -3.126 -0.123
04:22 1022 30.18 851 25.13 -3.6 25.6 87 -5.4 22.3 -3.217 -0.127
04:23 1022 30.18 851 25.13 -3.7 25.3 87 -5.6 21.9 -3.353 -0.132
04:24 1022 30.18 851 25.13 -3.9 25.1 89 -5.4 22.3 -3.472 -0.137
04:25 1022 30.18 851 25.13 -3.8 25.1 89 -5.4 22.3 -3.506 -0.138
04:26 1022 30.18 851 25.13 -3.8 25.1 87 -5.7 21.8 -3.489 -0.137
04:27 1022 30.18 851 25.13 -3.8 25.2 89 -5.3 22.4 -3.432 -0.135
04:28 1022 30.18 851 25.13 -3.7 25.3 87 -5.6 21.9 -3.443 -0.136
04:29 1022 30.18 851 25.13 -3.9 25 88 -5.6 21.9 -3.602 -0.142
04:30 1022 30.18 851 25.13 -3.7 25.3 92 -4.8 23.3 -3.443 -0.136
04:31 1022 30.18 851 25.13 -3.4 25.9 92 -4.6 23.8 -3.058 -0.12
04:32 1022 30.18 851 25.13 -3.2 26.2 86 -5.2 22.6 -2.945 -0.116
04:33 1022 30.18 851 25.13 -3.4 25.9 84 -5.7 21.7 -3.137 -0.124
04:34 1022 30.18 851 25.13 -3.7 25.4 87 -5.5 22.1 -3.324 -0.131
04:35 1022 30.18 851 25.13 -3.8 25.1 88 -5.6 22 -3.477 -0.137
04:36 1022 30.18 851 25.13 -4 24.8 87 -5.9 21.3 -3.681 -0.145
04:37 1022 30.18 851 25.13 -4.2 24.4 88 -5.9 21.5 -3.897 -0.153
04:38 1022 30.18 851 25.13 -4.2 24.4 92 -5.3 22.4 -3.817 -0.15
04:39 1022 30.18 851 25.13 -4 24.8 92 -5.2 22.7 -3.63 -0.143
04:40 1022 30.18 851 25.13 -3.9 25 91 -5.1 22.8 -3.534 -0.139
04:41 1022 30.18 851 25.13 -4 24.9 87 -5.9 21.4 -3.642 -0.143
04:42 1022 30.18 851 25.13 -4.2 24.4 87 -6.1 21 -3.959 -0.156
04:43 1022 30.18 851 25.13 -4.5 23.9 88 -6.2 20.9 -4.134 -0.163
04:44 1022 30.18 851 25.13 -4.6 23.7 89 -6.2 20.8 -4.253 -0.167
04:45 1022 30.18 851 25.13 -4.7 23.5 89 -6.2 20.8 -4.378 -0.172
04:46 1022 30.18 851 25.13 -4.8 23.3 90 -6.2 20.9 -4.418 -0.174
04:47 1022 30.18 851 25.13 -4.8 23.3 91 -6.1 20.9 -4.457 -0.175
04:48 1022 30.18 851 25.13 -4.8 23.3 91 -6.1 21.1 -4.446 -0.175
04:49 1022 30.18 851 25.13 -4.8 23.3 91 -6.1 21 -4.429 -0.174
04:50 1022 30.18 851 25.13 -4.9 23.3 90 -6.2 20.8 -4.531 -0.178
04:51 1022 30.18 851 25.13 -4.9 23.2 91 -6.2 20.8 -4.554 -0.179
04:52 1022 30.18 851 25.13 -4.9 23.2 91 -6.1 21 -4.548 -0.179
04:53 1022 30.18 851 25.13 -4.9 23.2 91 -6.1 21 -4.548 -0.179
04:54 1022 30.18 851 25.13 -4.9 23.1 90 -6.3 20.7 -4.593 -0.181
04:55 1022 30.18 851 25.13 -5 23 92 -6.2 20.9 -4.673 -0.184
04:56 1022 30.18 851 25.13 -4.9 23.2 94 -5.7 21.7 -4.588 -0.181
04:57 1022 30.18 851 25.13 -4.7 23.5 94 -5.6 21.9 -4.423 -0.174
04:58 1022 30.18 851 25.13 -4.6 23.7 94 -5.5 22.1 -4.316 -0.17
04:59 1022 30.18 851 25.13 -4.5 24 94 -5.3 22.4 -4.214 -0.166
05:00 1022 30.18 851 25.13 -4.3 24.2 94 -5.1 22.8 -3.998 -0.157
05:01 1022 30.18 851 25.13 -4.1 24.7 94 -4.8 23.3 -3.749 -0.148
05:02 1022 30.18 851 25.13 -3.9 24.9 92 -5 23 -3.698 -0.146
05:03 1022 30.18 851 25.13 -3.8 25.1 92 -4.9 23.2 -3.608 -0.142
05:04 1022 30.18 851 25.13 -3.7 25.4 93 -4.6 23.7 -3.523 -0.139
05:05 1022 30.18 851 25.13 -3.4 25.9 92 -4.5 24 -3.285 -0.129
05:06 1022 30.18 851 25.13 -3.2 26.2 91 -4.5 24 -3.052 -0.12
05:07 1022 30.18 851 25.13 -3 26.5 90 -4.5 24 -2.922 -0.115
05:08 1022 30.18 851 25.13 -3.1 26.4 86 -5 22.9 -2.928 -0.115
05:09 1022 30.18 851 25.13 -3.3 26.1 88 -5 23.1 -3.03 -0.119
05:10 1022 30.18 851 25.13 -3.2 26.2 89 -4.8 23.3 -2.979 -0.117
05:11 1022 30.18 851 25.13 -3.2 26.3 85 -5.3 22.5 -2.933 -0.115
05:12 1022 30.18 851 25.13 -3.4 25.9 86 -5.4 22.3 -3.064 -0.121
05:13 1022 30.18 851 25.13 -3.4 25.9 92 -4.6 23.8 -3.047 -0.12
05:14 1022 30.18 851 25.13 -3 26.5 88 -4.7 23.5 -2.69 -0.106
05:15 1022 30.18 851 25.13 -2.9 26.8 86 -4.9 23.3 -2.638 -0.104
05:16 1022 30.18 851 25.13 -2.8 26.9 87 -4.7 23.6 -2.57 -0.101
05:17 1022 30.18 851 25.13 -2.8 26.9 86 -4.9 23.3 -2.558 -0.101
05:18 1022 30.18 851 25.13 -3 26.6 82 -5.6 22 -2.784 -0.11
05:19 1022 30.18 851 25.13 -3.3 26 87 -5.3 22.5 -3.056 -0.12
05:20 1022 30.18 851 25.13 -3.3 26 88 -5 23 -3.016 -0.119
05:21 1022 30.18 851 25.13 -3.3 26 87 -5.2 22.7 -3.061 -0.121
05:22 1022 30.18 851 25.13 -3.3 26.1 90 -4.7 23.6 -2.987 -0.118
05:23 1022 30.18 851 25.13 -3.1 26.5 87 -5 23.1 -2.754 -0.108
05:24 1022 30.18 851 25.13 -3.1 26.5 86 -5.1 22.9 -2.794 -0.11
05:25 1022 30.18 851 25.13 -3.1 26.4 86 -5.2 22.7 -2.811 -0.111
05:26 1022 30.18 851 25.13 -3.2 26.2 86 -5.2 22.6 -2.884 -0.114
05:27 1022 30.18 851 25.13 -3.3 26.1 86 -5.2 22.6 -2.969 -0.117
05:28 1022 30.18 851 25.13 -3.4 26 87 -5.2 22.7 -3.003 -0.118
05:29 1022 30.18 851 25.13 -3.4 25.8 88 -5.2 22.6 -3.042 -0.12
05:30 1022 30.18 851 25.13 -3.4 25.8 87 -5.3 22.5 -3.082 -0.121
05:31 1022 30.18 851 25.13 -3.5 25.7 88 -5.3 22.5 -3.167 -0.125
05:32 1022 30.18 851 25.13 -3.5 25.7 89 -5.1 22.7 -3.149 -0.124
05:33 1022 30.18 851 25.13 -3.5 25.8 89 -5 23 -3.11 -0.122
05:34 1022 30.18 851 25.13 -3.3 26 90 -4.8 23.4 -3.002 -0.118
05:35 1022 30.18 851 25.13 -3.2 26.2 90 -4.7 23.6 -2.883 -0.114
05:36 1022 30.18 851 25.13 -3.1 26.5 88 -4.8 23.4 -2.809 -0.111
05:37 1022 30.18 851 25.13 -3.1 26.4 85 -5.2 22.6 -2.86 -0.113
05:38 1022 30.18 851 25.13 -3.3 26 87 -5.2 22.7 -3.03 -0.119
05:39 1022 30.18 851 25.13 -3.3 26 89 -4.9 23.2 -2.979 -0.117
05:40 1022 30.18 851 25.13 -3.2 26.3 88 -4.9 23.1 -2.866 -0.113
05:41 1022 30.18 851 25.13 -3.1 26.4 88 -4.8 23.4 -2.837 -0.112
05:42 1022 30.18 851 25.13 -3.1 26.5 85 -5.3 22.5 -2.826 -0.111
05:43 1022 30.18 851 25.13 -3.3 26 83 -5.9 21.4 -3.126 -0.123
05:44 1022 30.18 851 25.13 -3.7 25.3 83 -6.1 20.9 -3.483 -0.137
05:45 1022 30.18 851 25.13 -4 24.7 86 -6.1 21 -3.738 -0.147
05:46 1022 30.18 851 25.13 -4.2 24.4 87 -6 21.1 -3.868 -0.152
05:47 1022 30.18 851 25.13 -4.3 24.3 88 -5.9 21.3 -3.936 -0.155
05:48 1022 30.18 851 25.13 -4.3 24.3 88 -6 21.3 -3.953 -0.156
05:49 1022 30.18 851 25.13 -4.3 24.2 89 -5.9 21.4 -3.998 -0.157
05:50 1022 30.18 851 25.13 -4.3 24.2 89 -5.9 21.3 -3.998 -0.157
05:51 1022 30.18 851 25.13 -4.4 24.1 89 -6 21.3 -4.038 -0.159
05:52 1022 30.18 851 25.13 -4.4 24.1 90 -5.8 21.5 -4.066 -0.16
05:53 1022 30.18 851 25.13 -4.4 24.2 90 -5.7 21.7 -4.021 -0.158
05:54 1022 30.18 851 25.13 -4.2 24.4 91 -5.5 22.1 -3.925 -0.155
05:55 1022 30.18 851 25.13 -4.1 24.7 91 -5.4 22.3 -3.806 -0.15
05:56 1022 30.18 851 25.13 -4 24.8 89 -5.5 22.1 -3.726 -0.147
05:57 1022 30.18 851 25.13 -3.9 25 89 -5.4 22.2 -3.641 -0.143
05:58 1022 30.18 851 25.13 -3.8 25.2 90 -5.2 22.6 -3.567 -0.14
05:59 1022 30.18 851 25.13 -3.6 25.5 89 -5.1 22.8 -3.442 -0.136
06:00 1022 30.18 851 25.13 -3.5 25.7 89 -5.1 22.9 -3.277 -0.129
06:01 1022 30.18 851 25.13 -3.3 26 90 -4.7 23.5 -3.096 -0.122
06:02 1022 30.18 851 25.13 -3.1 26.4 89 -4.6 23.6 -2.875 -0.113
06:03 1022 30.18 851 25.13 -2.9 26.8 89 -4.5 23.9 -2.683 -0.106
06:04 1022 30.18 851 25.13 -2.7 27.1 87 -4.6 23.7 -2.479 -0.098
06:05 1022 30.18 851 25.13 -2.6 27.3 86 -4.7 23.6 -2.399 -0.094
06:06 1022 30.18 851 25.13 -2.7 27.1 83 -5.2 22.6 -2.462 -0.097
06:07 1022 30.18 851 25.13 -2.9 26.8 86 -5 23 -2.62 -0.103
06:08 1022 30.18 851 25.13 -2.9 26.7 86 -5 23 -2.665 -0.105
06:09 1022 30.18 851 25.13 -2.9 26.8 88 -4.6 23.7 -2.625 -0.103
06:10 1022 30.18 851 25.13 -2.8 27 87 -4.7 23.6 -2.455 -0.097
06:11 1022 30.18 851 25.13 -2.7 27.2 86 -4.7 23.5 -2.426 -0.096
06:12 1022 30.18 851 25.13 -2.6 27.3 84 -5 23 -2.386 -0.094
06:13 1022 30.18 851 25.13 -2.6 27.4 83 -5 23 -2.38 -0.094
06:14 1022 30.18 851 25.13 -2.5 27.4 83 -5 23 -2.329 -0.092
06:15 1022 30.18 851 25.13 -2.5 27.5 83 -5.1 22.8 -2.317 -0.091
06:16 1022 30.18 851 25.13 -2.5 27.6 82 -5.1 22.9 -2.26 -0.089
06:17 1022 30.18 851 25.13 -2.4 27.6 83 -4.9 23.2 -2.226 -0.088
06:18 1022 30.18 851 25.13 -2.3 27.9 83 -4.8 23.3 -2.067 -0.081
06:19 1022 30.18 851 25.13 -2.1 28.2 82 -4.8 23.4 -1.914 -0.075
06:20 1022 30.18 851 25.13 -2 28.5 82 -4.6 23.7 -1.789 -0.07
06:21 1022 30.18 851 25.13 -1.8 28.8 81 -4.6 23.8 -1.585 -0.062
06:22 1022 30.18 851 25.13 -1.7 29 81 -4.6 23.8 -1.466 -0.058
06:23 1022 30.18 851 25.13 -1.6 29.2 80 -4.5 23.9 -1.37 -0.054
06:24 1022 30.18 851 25.13 -1.5 29.3 80 -4.4 24 -1.222 -0.048
06:25 1022 30.18 851 25.13 -1.5 29.3 80 -4.4 24 -1.16 -0.046
06:26 1022 30.18 851 25.13 -1.5 29.4 80 -4.5 23.8 -1.126 -0.044
06:27 1022 30.18 851 25.13 -1.6 29.1 80 -4.7 23.6 -1.284 -0.051
06:28 1022 30.18 851 25.13 -1.8 28.8 80 -4.8 23.4 -1.454 -0.057
06:29 1022 30.18 851 25.13 -1.9 28.6 79 -5.1 22.8 -1.601 -0.063
06:30 1022 30.18 851 25.13 -2.1 28.2 79 -5.2 22.6 -1.851 -0.073
06:31 1022 30.18 851 25.13 -2.4 27.7 81 -5.2 22.7 -2.123 -0.084
06:32 1022 30.18 851 25.13 -2.6 27.3 83 -5.1 22.7 -2.259 -0.089
06:33 1022 30.18 851 25.13 -2.7 27.1 83 -5.2 22.7 -2.372 -0.093
06:34 1022 30.18 851 25.13 -2.8 27 84 -5.1 22.8 -2.411 -0.095
06:35 1022 30.18 851 25.13 -2.8 27 85 -4.9 23.1 -2.389 -0.094
06:36 1022 30.18 851 25.13 -2.8 27 86 -4.7 23.5 -2.36 -0.093
06:37 1022 30.18 851 25.13 -2.6 27.3 86 -4.7 23.5 -2.207 -0.087
06:38 1022 30.18 851 25.13 -2.5 27.5 87 -4.4 24 -2.122 -0.084
06:39 1022 30.18 851 25.13 -2.3 27.8 86 -4.4 24 -1.958 -0.077
06:40 1022 30.18 851 25.13 -2.3 27.8 84 -4.7 23.6 -1.959 -0.077
06:41 1022 30.18 851 25.13 -2.4 27.7 85 -4.6 23.7 -2.01 -0.079
06:42 1022 30.18 851 25.13 -2.4 27.6 88 -4.2 24.4 -1.988 -0.078
06:43 1022 30.18 851 25.13 -2.3 27.9 86 -4.3 24.2 -1.824 -0.072
06:44 1022 30.18 851 25.13 -2.2 28.1 87 -4.1 24.6 -1.705 -0.067
06:45 1022 30.18 851 25.13 -2 28.4 86 -4 24.8 -1.53 -0.06
06:46 1022 30.18 851 25.13 -1.9 28.6 86 -3.9 25.1 -1.303 -0.051
06:47 1022 30.18 851 25.13 -1.7 28.9 86 -3.8 25.1 -1.134 -0.045
06:48 1022 30.18 851 25.13 -1.6 29.2 86 -3.7 25.4 -.964 -0.038
06:49 1022 30.18 851 25.13 -1.5 29.3 86 -3.5 25.6 -.839 -0.033
06:50 1022 30.18 851 25.13 -1.3 29.6 85 -3.5 25.8 -.647 -0.025
06:51 1022 30.18 851 25.13 -1.1 30 84 -3.4 25.8 -.505 -0.02
06:52 1022 30.18 851 25.13 -0.9 30.3 83 -3.4 25.9 -.313 -0.012
06:53 1022 30.18 851 25.13 -0.7 30.7 83 -3.3 26 -.137 -0.005
06:54 1022 30.18 851 25.13 -0.7 30.8 82 -3.3 26.1 -.019 -0.001
06:55 1022 30.18 851 25.13 -0.5 31 82 -3.2 26.3 .1 0.004
06:56 1022 30.18 851 25.13 -0.5 31.2 82 -3.1 26.4 .157 0.006
06:57 1022 30.18 851 25.13 -0.4 31.3 82 -3.1 26.5 .236 0.009
06:58 1022 30.18 851 25.13 -0.3 31.4 82 -3 26.6 .281 0.011
06:59 1022 30.18 851 25.13 -0.3 31.5 82 -3 26.6 .321 0.013
07:00 1022 30.18 851 25.13 -0.3 31.5 82 -2.9 26.7 .337 0.013
07:01 1022 30.18 851 25.13 -0.3 31.5 82 -2.9 26.7 .387 0.015
07:02 1022 30.18 851 25.13 -0.2 31.6 82 -3 26.7 .489 0.019
07:03 1022 30.18 851 25.13 -0.1 31.8 82 -2.9 26.8 .522 0.021
07:04 1022 30.18 851 25.13 -0.1 31.8 81 -2.9 26.8 .624 0.025
07:05 1022 30.18 851 25.13 -0 32 82 -2.8 27 .669 0.026
07:06 1022 30.18 851 25.13 0 32.1 82 -2.7 27.1 .68 0.027
07:07 1022 30.18 851 25.13 -0 31.9 81 -2.9 26.9 .572 0.023
07:08 1022 30.18 851 25.13 -0.1 31.9 81 -2.9 26.8 .504 0.02
07:09 1022 30.18 851 25.13 -0.1 31.9 81 -3 26.6 .413 0.016
07:10 1022 30.18 851 25.13 -0 32 79 -3.2 26.2 .452 0.018
07:11 1022 30.18 851 25.13 0.2 32.3 79 -3.1 26.4 .588 0.023
07:12 1022 30.18 851 25.13 0.3 32.5 80 -2.7 27.1 .701 0.028
07:13 1022 30.18 851 25.13 0.4 32.7 80 -2.7 27.2 .831 0.033
07:14 1022 30.18 851 25.13 0.4 32.8 80 -2.6 27.3 .916 0.036
07:15 1022 30.18 851 25.13 0.6 33 78 -2.8 27 1.046 0.041
07:16 1022 30.18 851 25.13 0.7 33.2 79 -2.5 27.5 1.244 0.049
07:17 1022 30.18 851 25.13 0.7 33.3 79 -2.4 27.7 1.352 0.053
07:18 1022 30.18 851 25.13 0.8 33.4 80 -2.4 27.8 1.419 0.056
07:19 1022 30.18 851 25.13 0.9 33.6 80 -2.3 27.9 1.544 0.061
07:20 1022 30.18 851 25.13 0.9 33.7 79 -2.3 27.9 1.646 0.065
07:21 1022 30.18 851 25.13 0.9 33.7 79 -2.2 28 1.685 0.066
07:22 1022 30.18 851 25.13 1 33.8 79 -2.3 27.8 1.719 0.068
07:23 1022 30.18 851 25.13 1 33.8 77 -2.5 27.4 1.764 0.069
07:24 1022 30.18 851 25.13 1 33.9 79 -2.3 27.9 1.838 0.072
07:25 1022 30.18 851 25.13 1.1 34 77 -2.6 27.4 1.9 0.075
07:26 1022 30.18 851 25.13 1.2 34.1 78 -2.3 27.8 1.951 0.077
07:27 1022 30.18 851 25.13 1.2 34.2 78 -2.3 27.9 2.041 0.08
07:28 1022 30.18 851 25.13 1.3 34.3 76 -2.4 27.7 2.053 0.081
07:29 1022 30.18 851 25.13 1.4 34.5 76 -2.4 27.7 2.132 0.084
07:30 1022 30.18 851 25.13 1.5 34.7 76 -2.3 27.9 2.206 0.087
07:31 1022 30.18 852 25.16 1.5 34.8 77 -2.1 28.2 2.274 0.09
07:32 1022 30.18 852 25.16 1.6 35 76 -2.2 28.1 2.358 0.093
07:33 1022 30.18 852 25.16 1.7 35.1 76 -2.1 28.1 2.476 0.097
07:34 1022 30.18 852 25.16 1.8 35.2 74 -2.3 27.9 2.504 0.099
07:35 1022 30.18 852 25.16 1.8 35.3 75 -2.2 28 2.577 0.101
07:36 1022 30.18 852 25.16 1.9 35.4 76 -2 28.4 2.599 0.102
07:37 1022 30.18 852 25.16 2 35.5 73 -2.3 27.8 2.667 0.105
07:38 1022 30.18 852 25.16 2 35.5 74 -2.3 27.9 2.712 0.107
07:39 1022 30.18 852 25.16 2 35.5 76 -1.9 28.6 2.774 0.109
07:40 1022 30.18 852 25.16 2 35.6 76 -1.8 28.7 2.859 0.113
07:41 1022 30.18 852 25.16 2.1 35.8 74 -2 28.3 2.966 0.117
07:42 1022 30.18 852 25.16 2.1 35.7 74 -2.1 28.2 2.92 0.115
07:43 1022 30.18 852 25.16 2.1 35.8 75 -1.9 28.6 2.954 0.116
07:44 1022 30.18 852 25.16 2.1 35.8 75 -1.9 28.6 3.015 0.119
07:45 1022 30.18 852 25.16 2.2 35.9 75 -1.7 28.9 3.043 0.12
07:46 1022 30.18 852 25.16 2.2 36 75 -1.8 28.8 3.088 0.122
07:47 1022 30.18 852 25.16 2.3 36.1 76 -1.4 29.4 3.138 0.124
07:48 1022 30.18 852 25.16 2.3 36.2 74 -1.7 28.9 3.188 0.126
07:49 1022 30.18 852 25.16 2.3 36.2 74 -1.7 28.9 3.188 0.126
07:50 1022 30.18 852 25.16 2.4 36.2 73 -2 28.5 3.227 0.127
07:51 1022 30.18 852 25.16 2.4 36.2 73 -2 28.4 3.278 0.129
07:52 1022 30.18 852 25.16 2.4 36.3 75 -1.6 29.1 3.266 0.129
07:53 1022 30.18 852 25.16 2.5 36.5 72 -2.1 28.3 3.356 0.132
07:54 1022 30.18 852 25.16 2.6 36.6 72 -2.1 28.3 3.299 0.13
07:55 1022 30.18 852 25.16 2.6 36.7 74 -1.6 29 3.26 0.128
07:56 1022 30.18 852 25.16 2.7 36.9 70 -2.1 28.2 3.389 0.133
07:57 1022 30.18 852 25.16 2.8 37 74 -1.4 29.5 3.497 0.138
07:58 1022 30.18 852 25.16 2.9 37.2 70 -2.1 28.2 3.542 0.139
07:59 1022 30.18 852 25.16 2.9 37.2 73 -1.4 29.4 3.649 0.144
08:00 1022 30.18 852 25.16 3 37.4 71 -1.8 28.8 3.768 0.148
08:01 1022 30.18 852 25.16 3.1 37.6 73 -1.3 29.7 3.966 0.156
08:02 1022 30.18 852 25.16 3.2 37.8 69 -1.9 28.5 4.084 0.161
08:03 1022 30.18 852 25.16 3.2 37.8 72 -1.3 29.6 4.164 0.164
08:04 1022 30.18 852 25.16 3.3 38 68 -2 28.5 4.248 0.167
08:05 1023 30.21 852 25.16 3.4 38.1 70 -1.6 29.2 4.401 0.173
08:06 1023 30.21 852 25.16 3.5 38.2 67 -2.1 28.2 4.475 0.176
08:07 1023 30.21 852 25.16 3.4 38.2 68 -1.9 28.5 4.537 0.179
08:08 1023 30.21 852 25.16 3.5 38.4 70 -1.3 29.6 4.586 0.181
08:09 1023 30.21 852 25.16 3.7 38.6 67 -1.9 28.5 4.688 0.185
08:10 1023 30.21 852 25.16 3.8 38.9 67 -1.7 29 4.863 0.191
08:11 1022 30.18 852 25.16 4 39.1 66 -1.9 28.6 5.054 0.199
08:12 1023 30.21 852 25.16 4 39.2 67 -1.6 29.2 5.145 0.203
08:13 1023 30.21 852 25.16 4.1 39.4 67 -1.5 29.3 5.23 0.206
08:14 1022 30.18 852 25.16 4.2 39.6 64 -2 28.3 5.217 0.205
08:15 1022 30.18 852 25.16 4.3 39.7 67 -1.3 29.6 5.376 0.212
08:16 1022 30.18 852 25.16 4.4 40 65 -1.6 29.1 5.539 0.218
08:17 1022 30.18 852 25.16 4.6 40.2 60 -2.5 27.5 5.566 0.219
08:18 1022 30.18 852 25.16 4.6 40.3 63 -1.8 28.8 5.634 0.222
08:19 1022 30.18 852 25.16 4.7 40.4 58 -3 26.6 5.656 0.223
08:20 1022 30.18 852 25.16 4.5 40.2 59 -2.7 27.1 5.547 0.218
08:21 1022 30.18 852 25.16 4.5 40.1 60 -2.7 27.2 5.564 0.219
08:22 1022 30.18 852 25.16 4.6 40.2 60 -2.5 27.6 5.642 0.222
08:23 1022 30.18 852 25.16 4.7 40.5 59 -2.7 27.1 5.647 0.222
08:24 1022 30.18 852 25.16 4.9 40.8 59 -2.4 27.7 5.806 0.229
08:25 1022 30.18 852 25.16 5 40.9 58 -2.6 27.4 5.839 0.23
08:26 1022 30.18 852 25.16 4.8 40.7 59 -2.5 27.4 5.788 0.228
08:27 1022 30.18 852 25.16 4.8 40.6 62 -1.8 28.8 5.793 0.228
08:28 1022 30.18 852 25.16 4.8 40.7 59 -2.4 27.6 5.821 0.229
08:29 1022 30.18 852 25.16 4.9 40.8 60 -2.1 28.2 5.696 0.224
08:30 1023 30.21 852 25.16 5 41 62 -1.5 29.2 5.707 0.225
08:31 1023 30.21 852 25.16 5 41.1 57 -2.7 27.1 5.797 0.228
08:32 1023 30.21 852 25.16 5 41 58 -2.7 27.2 5.831 0.23
08:33 1023 30.21 852 25.16 5 41 58 -2.6 27.3 5.91 0.233
08:34 1023 30.21 852 25.16 5.2 41.4 54 -3.4 26 6.063 0.239
08:35 1023 30.21 852 25.16 5.4 41.7 51 -3.9 25 6.147 0.242
08:36 1023 30.21 852 25.16 5.4 41.7 56 -2.8 27 6.136 0.242
08:37 1023 30.21 852 25.16 5.4 41.8 54 -3 26.6 6.1 0.24
08:38 1023 30.21 852 25.16 5.6 42 56 -2.5 27.5 6.111 0.241
08:39 1023 30.21 852 25.16 5.7 42.2 58 -2 28.4 6.202 0.244
08:40 1023 30.21 852 25.16 5.6 42.1 53 -3.3 26.1 6.156 0.242
08:41 1023 30.21 852 25.16 5.5 41.9 56 -2.5 27.6 6.032 0.237
08:42 1023 30.21 852 25.16 5.6 42.1 55 -2.6 27.3 6.151 0.242
08:43 1023 30.21 852 25.16 5.7 42.3 56 -2.5 27.5 6.217 0.245
08:44 1023 30.21 852 25.16 5.7 42.2 53 -3.1 26.4 6.138 0.242
08:45 1023 30.21 852 25.16 5.6 42.1 57 -2.2 28 6.127 0.241
08:46 1023 30.21 852 25.16 5.7 42.2 53 -3.1 26.4 6.284 0.247
08:47 1023 30.21 852 25.16 5.7 42.2 54 -2.9 26.8 6.34 0.25
08:48 1023 30.21 852 25.16 5.9 42.5 54 -2.6 27.3 6.362 0.25
08:49 1023 30.21 852 25.16 6 42.7 56 -2.2 28.1 6.468 0.255
08:50 1023 30.21 852 25.16 6 42.8 58 -1.7 29 6.643 0.262
08:51 1023 30.21 852 25.16 6.2 43.2 54 -2.4 27.7 6.694 0.264
08:52 1023 30.21 852 25.16 6.4 43.5 57 -1.5 29.4 6.919 0.272
08:53 1023 30.21 852 25.16 6.4 43.5 54 -2.3 27.8 6.924 0.273
08:54 1023 30.21 852 25.16 6.1 42.9 58 -1.5 29.3 6.652 0.262
08:55 1023 30.21 852 25.16 5.8 42.5 57 -1.9 28.6 6.407 0.252
08:56 1023 30.21 852 25.16 5.6 42.2 58 -1.9 28.5 6.226 0.245
08:57 1023 30.21 852 25.16 5.5 41.8 58 -2.1 28.3 6.056 0.238
08:58 1023 30.21 852 25.16 5.4 41.6 57 -2.5 27.5 5.965 0.235
08:59 1023 30.21 852 25.16 5.3 41.5 60 -1.8 28.7 5.885 0.232
09:00 1023 30.21 852 25.16 5.2 41.4 56 -2.7 27.1 5.817 0.229
09:01 1023 30.21 852 25.16 5.3 41.5 62 -1.5 29.3 5.833 0.23
09:02 1023 30.21 852 25.16 5.3 41.5 57 -2.6 27.2 5.85 0.23
09:03 1023 30.21 852 25.16 5.3 41.6 58 -2.2 28 5.873 0.231
09:04 1023 30.21 852 25.16 5.5 41.8 59 -1.8 28.8 5.991 0.236
09:05 1023 30.21 852 25.16 5.6 42 58 -2 28.4 6.115 0.241
09:06 1023 30.21 852 25.16 5.6 42 58 -2 28.5 6.092 0.24
09:07 1023 30.21 852 25.16 5.5 42 63 -1 30.2 6.041 0.238
09:08 1023 30.21 852 25.16 5.7 42.2 60 -1.4 29.4 6.2 0.244
09:09 1023 30.21 852 25.16 5.6 42.1 58 -1.9 28.6 6.131 0.241
09:10 1023 30.21 852 25.16 5.5 42 61 -1.4 29.4 6.073 0.239
09:11 1023 30.21 852 25.16 5.6 42 65 -0.4 31.2 6.05 0.238
09:12 1023 30.21 852 25.16 5.6 42.1 63 -0.9 30.3 6.1 0.24
09:13 1023 30.21 852 25.16 5.7 42.2 59 -1.8 28.7 6.094 0.24
09:14 1023 30.21 852 25.16 5.8 42.4 61 -1.1 29.9 6.128 0.241
09:15 1023 30.21 852 25.16 5.9 42.6 61 -1.1 30 6.195 0.244
09:16 1023 30.21 852 25.16 5.9 42.6 63 -0.6 30.9 6.291 0.248
09:17 1023 30.21 852 25.16 6 42.8 58 -1.6 29.2 6.41 0.252
09:18 1023 30.21 852 25.16 6 42.7 61 -1 30.1 6.424 0.253
09:19 1023 30.21 852 25.16 5.9 42.6 57 -1.9 28.5 6.294 0.248
09:20 1023 30.21 852 25.16 5.8 42.4 60 -1.4 29.4 6.277 0.247
09:21 1023 30.21 852 25.16 5.8 42.5 61 -1.1 30 6.275 0.247
09:22 1023 30.21 852 25.16 6 42.7 59 -1.3 29.6 6.405 0.252
09:23 1023 30.21 852 25.16 6.1 43 61 -0.8 30.6 6.512 0.256
09:24 1023 30.21 852 25.16 6.2 43.1 60 -0.9 30.4 6.55 0.258
09:25 1023 30.21 852 25.16 6.2 43.1 59 -1.1 30 6.618 0.261
09:26 1023 30.21 852 25.16 6.1 42.9 62 -0.8 30.6 6.607 0.26
09:27 1023 30.21 852 25.16 6.1 42.9 60 -1 30.1 6.554 0.258
09:28 1023 30.21 852 25.16 6 42.8 61 -1 30.3 6.532 0.257
09:29 1023 30.21 852 25.16 6.1 43 57 -1.8 28.7 6.6 0.26
09:30 1023 30.21 852 25.16 6.2 43.2 57 -1.7 28.9 6.695 0.264
09:31 1023 30.21 852 25.16 6.4 43.5 55 -2.1 28.3 6.57 0.259
09:32 1022 30.18 852 25.16 6.5 43.7 57 -1.3 29.6 6.751 0.266
09:33 1022 30.18 852 25.16 6.6 43.8 59 -0.8 30.5 6.977 0.275
09:34 1022 30.18 852 25.16 6.5 43.7 56 -1.6 29.1 6.92 0.272
09:35 1022 30.18 852 25.16 6.3 43.3 57 -1.6 29.2 6.745 0.266
09:36 1022 30.18 852 25.16 6.3 43.3 60 -1 30.3 6.75 0.266
09:37 1022 30.18 852 25.16 6.3 43.4 62 -0.3 31.5 6.75 0.266
09:38 1022 30.18 852 25.16 6.4 43.5 57 -1.5 29.4 6.835 0.269
09:39 1022 30.18 852 25.16 6.3 43.4 61 -0.5 31.1 6.834 0.269
09:40 1022 30.18 852 25.16 6.4 43.4 56 -1.8 28.8 6.874 0.271
09:41 1022 30.18 852 25.16 6.4 43.4 59 -1.1 30.1 6.902 0.272
09:42 1022 30.18 852 25.16 6.4 43.5 60 -0.7 30.7 6.896 0.271
09:43 1022 30.18 852 25.16 6.4 43.5 62 -0.3 31.4 6.902 0.272
09:44 1022 30.18 852 25.16 6.5 43.6 58 -1.1 30 6.986 0.275
09:45 1022 30.18 852 25.16 6.6 43.9 60 -0.5 31 7.11 0.28
09:46 1022 30.18 852 25.16 7 44.5 60 -0.2 31.7 7.39 0.291
09:47 1022 30.18 852 25.16 7.2 44.9 54 -1.4 29.5 7.66 0.302
09:48 1022 30.18 852 25.16 7.1 44.8 56 -1.1 30 7.53 0.296
09:49 1022 30.18 852 25.16 7 44.6 59 -0.5 31 7.46 0.294
09:50 1022 30.18 852 25.16 6.9 44.4 58 -0.9 30.4 7.45 0.293
09:51 1022 30.18 852 25.16 6.8 44.3 57 -1.1 30 7.39 0.291
09:52 1022 30.18 852 25.16 6.9 44.4 57 -1.1 30.1 7.3 0.287
09:53 1022 30.18 852 25.16 6.8 44.2 55 -1.6 29.1 7.23 0.285
09:54 1022 30.18 852 25.16 6.8 44.3 57 -1.1 30.1 7.24 0.285
09:55 1022 30.18 852 25.16 7 44.5 60 -0.3 31.4 7.4 0.291
09:56 1022 30.18 852 25.16 7 44.7 57 -0.9 30.3 7.38 0.291
09:57 1022 30.18 852 25.16 7.2 44.9 56 -0.9 30.4 7.33 0.289
09:58 1022 30.18 852 25.16 7.2 44.9 63 0.6 33 7.34 0.289
09:59 1022 30.18 852 25.16 7.3 45.1 54 -1.3 29.6 7.5 0.295
10:00 1022 30.18 852 25.16 7.2 44.9 58 -0.6 30.9 7.48 0.294
10:01 1022 30.18 852 25.16 7.1 44.7 62 0.2 32.4 7.35 0.289
10:02 1022 30.18 852 25.16 7.2 44.9 57 -0.8 30.5 7.34 0.289
10:03 1022 30.18 852 25.16 7.2 44.9 54 -1.4 29.5 7.25 0.285
10:04 1022 30.18 852 25.16 7.2 45 56 -0.8 30.5 7.3 0.287
10:05 1022 30.18 852 25.16 7.5 45.4 55 -0.9 30.4 7.55 0.297
10:06 1022 30.18 852 25.16 7.7 45.9 55 -0.7 30.7 7.85 0.309
10:07 1022 30.18 851 25.13 7.9 46.2 53 -1.1 30 7.93 0.312
10:08 1022 30.18 852 25.16 7.8 46.1 57 -0 31.9 7.78 0.306
10:09 1022 30.18 852 25.16 7.8 46 57 -0.2 31.7 7.74 0.305
10:10 1022 30.18 852 25.16 7.8 46.1 58 0.1 32.2 7.84 0.309
10:11 1022 30.18 852 25.16 7.7 45.8 54 -1.1 30 7.82 0.308
10:12 1022 30.18 852 25.16 7.5 45.5 54 -1.3 29.7 7.82 0.308
10:13 1022 30.18 851 25.13 7.5 45.5 52 -1.7 28.9 7.81 0.307
10:14 1022 30.18 851 25.13 7.3 45.2 54 -1.2 29.8 7.69 0.303
10:15 1022 30.18 851 25.13 7.3 45.2 54 -1.3 29.6 7.67 0.302
10:16 1022 30.18 851 25.13 7.3 45.2 54 -1.3 29.6 7.69 0.303
10:17 1022 30.18 851 25.13 7.2 44.9 53 -1.7 28.9 7.63 0.3
10:18 1022 30.18 851 25.13 7.1 44.8 59 -0.3 31.5 7.57 0.298
10:19 1022 30.18 851 25.13 7.2 45 53 -1.7 29 7.65 0.301
10:20 1022 30.18 851 25.13 7.2 45 52 -2.1 28.3 7.68 0.302
10:21 1022 30.18 851 25.13 7.2 44.9 53 -1.8 28.7 7.64 0.301
10:22 1022 30.18 851 25.13 7.2 45 55 -1.2 29.9 7.7 0.303
10:23 1022 30.18 851 25.13 7.3 45.1 54 -1.3 29.6 7.76 0.306
10:24 1022 30.18 851 25.13 7.4 45.2 61 0.4 32.7 7.81 0.307
10:25 1022 30.18 851 25.13 7.6 45.6 55 -0.8 30.6 8.07 0.318
10:26 1022 30.18 851 25.13 7.6 45.7 54 -1 30.2 8.1 0.319
10:27 1022 30.18 851 25.13 7.6 45.6 52 -1.7 29 8.02 0.316
10:28 1022 30.18 851 25.13 7.4 45.4 56 -0.9 30.5 7.98 0.314
10:29 1022 30.18 851 25.13 7.5 45.6 52 -1.7 29 8.05 0.317
10:30 1022 30.18 851 25.13 7.7 45.8 51 -1.8 28.8 7.94 0.313
10:31 1022 30.18 851 25.13 7.7 45.9 53 -1.4 29.5 7.87 0.31
10:32 1022 30.18 851 25.13 7.8 46.1 54 -1 30.2 8.08 0.318
10:33 1022 30.18 851 25.13 8.1 46.5 51 -1.5 29.2 8.22 0.324
10:34 1022 30.18 851 25.13 8.2 46.8 52 -1.1 30 8.44 0.332
10:35 1022 30.18 851 25.13 8.1 46.7 51 -1.4 29.5 8.55 0.337
10:36 1022 30.18 851 25.13 8.2 46.8 52 -1 30.2 8.64 0.34
10:37 1022 30.18 851 25.13 8.3 46.9 55 -0.2 31.7 8.66 0.341
10:38 1022 30.18 851 25.13 8.2 46.8 52 -1.1 30.1 8.6 0.339
10:39 1022 30.18 851 25.13 8.1 46.6 52 -1.2 29.9 8.44 0.332
10:40 1022 30.18 851 25.13 8.1 46.5 52 -1.1 30 8.4 0.331
10:41 1022 30.18 851 25.13 8.1 46.6 58 0.4 32.8 8.48 0.334
10:42 1022 30.18 851 25.13 8.1 46.6 52 -1 30.2 8.46 0.333
10:43 1022 30.18 851 25.13 8.1 46.6 53 -0.7 30.7 8.32 0.328
10:44 1022 30.18 851 25.13 8.3 46.9 60 0.9 33.7 8.52 0.335
10:45 1022 30.18 851 25.13 8.4 47.1 50 -1.5 29.4 8.74 0.344
10:46 1022 30.18 851 25.13 8.4 47 51 -1.1 30 8.73 0.344
10:47 1022 30.18 851 25.13 8.3 46.9 50 -1.5 29.3 8.65 0.341
10:48 1022 30.18 851 25.13 8.1 46.5 56 -0.2 31.6 8.53 0.336
10:49 1022 30.18 851 25.13 8 46.4 57 0.1 32.2 8.48 0.334
10:50 1022 30.18 851 25.13 8.1 46.5 55 -0.5 31.2 8.52 0.335
10:51 1022 30.18 851 25.13 8.1 46.6 55 -0.4 31.3 8.62 0.339
10:52 1022 30.18 851 25.13 8.3 46.9 50 -1.7 29 8.74 0.344
10:53 1022 30.18 851 25.13 8.5 47.2 53 -0.4 31.2 8.84 0.348
10:54 1022 30.18 851 25.13 8.6 47.4 51 -1 30.1 8.99 0.354
10:55 1022 30.18 851 25.13 8.6 47.4 48 -1.9 28.6 8.96 0.353
10:56 1022 30.18 851 25.13 8.4 47.1 50 -1.3 29.6 8.8 0.346
10:57 1022 30.18 851 25.13 8.3 47 50 -1.4 29.5 8.8 0.346
10:58 1022 30.18 851 25.13 8.4 47 49 -1.8 28.7 8.86 0.349
10:59 1022 30.18 851 25.13 8.4 47.1 52 -0.9 30.4 8.94 0.352
11:00 1022 30.18 851 25.13 8.3 46.9 52 -0.9 30.5 8.84 0.348
11:01 1022 30.18 851 25.13 8.3 46.9 48 -2.2 28.1 8.76 0.345
11:02 1022 30.18 851 25.13 8.1 46.5 49 -2.1 28.3 8.6 0.339
11:03 1022 30.18 851 25.13 8.1 46.5 49 -2.1 28.3 8.55 0.337
11:04 1022 30.18 851 25.13 8.3 47 53 -0.7 30.7 8.77 0.345
11:05 1022 30.18 851 25.13 8.5 47.2 47 -2.2 28 8.99 0.354
11:06 1022 30.18 851 25.13 8.4 47.2 48 -1.8 28.8 8.97 0.353
11:07 1022 30.18 851 25.13 8.5 47.3 51 -0.9 30.3 9.06 0.357
11:08 1022 30.18 851 25.13 8.7 47.6 51 -0.7 30.7 9.23 0.363
11:09 1022 30.18 851 25.13 8.9 48.1 52 -0.4 31.2 9.37 0.369
11:10 1022 30.18 851 25.13 9.1 48.5 47 -1.5 29.3 9.45 0.372
11:11 1022 30.18 851 25.13 9.3 48.7 49 -0.9 30.3 9.37 0.369
11:12 1022 30.18 851 25.13 9.3 48.8 47 -1.3 29.6 9.49 0.374
11:13 1022 30.18 851 25.13 9.3 48.7 47 -1.4 29.4 9.25 0.364
11:14 1022 30.18 851 25.13 9 48.2 49 -1 30.1 9.07 0.357
11:15 1022 30.18 851 25.13 9 48.2 46 -1.8 28.7 9.07 0.357
11:16 1022 30.18 851 25.13 9 48.1 45 -2.2 28 9.15 0.36
11:17 1022 30.18 851 25.13 8.9 48 50 -1.1 30.1 9.11 0.359
11:18 1022 30.18 851 25.13 8.7 47.7 49 -1.4 29.4 9.01 0.355
11:19 1022 30.18 851 25.13 8.5 47.2 48 -1.9 28.7 8.81 0.347
11:20 1022 30.18 851 25.13 8.3 47 47 -2.2 28 8.65 0.341
11:21 1022 30.18 851 25.13 8.1 46.7 47 -2.3 27.8 8.47 0.333
11:22 1022 30.18 851 25.13 7.9 46.2 45 -3.2 26.3 8.28 0.326
11:23 1022 30.18 851 25.13 7.8 46 46 -3.1 26.4 8.08 0.318
11:24 1022 30.18 851 25.13 7.7 45.8 49 -2.4 27.8 8.01 0.315
11:25 1022 30.18 851 25.13 7.7 45.8 47 -2.8 27 7.93 0.312
11:26 1022 30.18 851 25.13 7.7 45.9 47 -2.9 26.8 8.01 0.315
11:27 1022 30.18 851 25.13 7.7 45.9 50 -2 28.3 8.03 0.316
11:28 1022 30.18 851 25.13 7.7 45.9 49 -2.3 27.9 8.06 0.317
11:29 1022 30.18 851 25.13 7.7 45.9 52 -1.4 29.5 8.14 0.32
11:30 1022 30.18 851 25.13 8 46.4 51 -1.6 29.2 8.38 0.33
11:31 1022 30.18 851 25.13 8.4 47.1 48 -2 28.4 8.78 0.346
11:32 1022 30.18 851 25.13 8.7 47.6 47 -2 28.5 9.12 0.359
11:33 1022 30.18 851 25.13 8.8 47.8 47 -1.9 28.5 9.19 0.362
11:34 1022 30.18 851 25.13 8.7 47.7 47 -1.8 28.7 9.18 0.361
11:35 1022 30.18 851 25.13 8.5 47.3 46 -2.3 27.8 8.98 0.354
11:36 1022 30.18 851 25.13 8.2 46.8 51 -1.3 29.6 8.71 0.343
11:37 1022 30.18 851 25.13 8.2 46.7 55 -0.4 31.3 8.71 0.343
11:38 1022 30.18 851 25.13 8.3 47 52 -0.9 30.5 8.83 0.348
11:39 1022 30.18 851 25.13 8.5 47.3 46 -2.4 27.7 8.98 0.354
11:40 1022 30.18 851 25.13 8.7 47.7 43 -3 26.6 9.19 0.362
11:41 1022 30.18 851 25.13 8.8 47.8 52 -0.6 30.9 9.24 0.364
11:42 1022 30.18 851 25.13 8.9 48.1 53 -0 32 9.42 0.371
11:43 1022 30.18 851 25.13 9.1 48.3 46 -1.8 28.7 9.51 0.374
11:44 1022 30.18 851 25.13 9 48.3 37 -4.9 23.2 9.49 0.374
11:45 1022 30.18 851 25.13 9 48.1 41 -3.7 25.3 9.4 0.37
11:46 1022 30.18 851 25.13 9.2 48.6 45 -2 28.4 9.69 0.381
11:47 1022 30.18 851 25.13 9.5 49.1 45 -1.9 28.5 10 0.394
11:48 1022 30.18 851 25.13 9.8 49.7 38 -3.9 24.9 10.31 0.406
11:49 1022 30.18 851 25.13 10 50 38 -3.6 25.5 10.43 0.411
11:50 1022 30.18 851 25.13 10 50.1 39 -3.1 26.4 10.39 0.409
11:51 1022 30.18 851 25.13 10 50.1 37 -3.8 25.2 10.35 0.407
11:52 1022 30.18 851 25.13 10.2 50.3 38 -3.4 25.9 10.39 0.409
11:53 1022 30.18 851 25.13 10.3 50.6 43 -1.6 29.1 10.51 0.414
11:54 1022 30.18 851 25.13 10.5 51 43 -1.3 29.6 10.89 0.429
11:55 1022 30.18 851 25.13 10.8 51.4 44 -1 30.2 11.16 0.439
11:56 1022 30.18 851 25.13 10.7 51.2 41 -2 28.3 11.09 0.437
11:57 1022 30.18 851 25.13 10.4 50.7 37 -3.8 25.2 10.85 0.427
11:58 1022 30.18 851 25.13 10.1 50.1 38 -3.6 25.5 10.54 0.415
11:59 1022 30.18 851 25.13 9.6 49.3 44 -2 28.3 10.12 0.398
12:00 1022 30.18 851 25.13 9.3 48.7 41 -3.4 25.9 9.82 0.387
12:01 1022 30.18 851 25.13 9.2 48.5 43 -2.6 27.3 9.73 0.383
12:02 1022 30.18 851 25.13 9.3 48.7 38 -4.2 24.5 9.86 0.388
12:03 1022 30.18 851 25.13 9.2 48.6 36 -5.2 22.6 9.67 0.381
12:04 1022 30.18 851 25.13 9 48.2 36 -5.3 22.4 9.4 0.37
12:05 1022 30.18 851 25.13 9 48.1 38 -4.5 23.9 9.37 0.369
12:06 1021 30.15 851 25.13 9.2 48.5 46 -1.8 28.8 9.6 0.378
12:07 1021 30.15 851 25.13 9.5 49 39 -3.7 25.3 9.83 0.387
12:08 1021 30.15 851 25.13 9.6 49.2 39 -3.7 25.4 9.91 0.39
12:09 1021 30.15 851 25.13 9.7 49.4 35 -4.9 23.1 9.92 0.391
12:10 1021 30.15 851 25.13 9.8 49.6 35 -4.9 23.2 9.97 0.393
12:11 1021 30.15 851 25.13 9.8 49.6 34 -5.3 22.5 9.98 0.393
12:12 1021 30.15 851 25.13 9.7 49.5 38 -3.9 25 9.84 0.387
12:13 1021 30.15 851 25.13 9.7 49.5 41 -2.8 26.9 9.98 0.393
12:14 1021 30.15 851 25.13 9.9 49.7 36 -4.5 24 10.06 0.396
12:15 1021 30.15 851 25.13 9.9 49.7 40 -3 26.5 10.08 0.397
12:16 1021 30.15 851 25.13 10 50 35 -4.8 23.4 10.2 0.402
12:17 1021 30.15 851 25.13 10 49.9 38 -3.5 25.7 10.12 0.398
12:18 1021 30.15 851 25.13 9.9 49.9 37 -3.9 25 10.24 0.403
12:19 1021 30.15 851 25.13 9.9 49.8 44 -1.9 28.6 10.38 0.409
12:20 1021 30.15 851 25.13 10.1 50.2 34 -4.8 23.3 10.66 0.42
12:21 1021 30.15 851 25.13 9.9 49.8 35 -4.8 23.4 10.47 0.412
12:22 1021 30.15 851 25.13 9.8 49.6 38 -4 24.8 10.34 0.407
12:23 1021 30.15 851 25.13 9.9 49.7 36 -4.5 24 10.42 0.41
12:24 1021 30.15 851 25.13 10 49.9 35 -4.9 23.1 10.45 0.411
12:25 1021 30.15 851 25.13 10.2 50.4 39 -3.1 26.4 10.74 0.423
12:26 1021 30.15 851 25.13 10.3 50.6 42 -1.9 28.6 10.94 0.431
12:27 1021 30.15 851 25.13 10.3 50.5 38 -3.6 25.6 10.87 0.428
12:28 1021 30.15 851 25.13 10.2 50.4 30 -6.6 20.2 10.77 0.424
12:29 1021 30.15 851 25.13 10.1 50.3 31 -6.3 20.7 10.65 0.419
12:30 1021 30.15 851 25.13 10.1 50.1 32 -5.9 21.4 10.55 0.415
12:31 1021 30.15 851 25.13 10.1 50.2 33 -5.3 22.4 10.52 0.414
12:32 1021 30.15 851 25.13 10.2 50.3 42 -2 28.4 10.63 0.419
12:33 1021 30.15 851 25.13 10.3 50.5 31 -5.9 21.3 10.65 0.419
12:34 1021 30.15 851 25.13 10.1 50.2 37 -3.8 25.2 10.55 0.415
12:35 1021 30.15 851 25.13 10.1 50.1 30 -6.9 19.5 10.48 0.413
12:36 1021 30.15 851 25.13 9.9 49.9 30 -6.6 20 10.39 0.409
12:37 1021 30.15 851 25.13 9.9 49.9 31 -6.2 20.8 10.43 0.411
12:38 1021 30.15 851 25.13 10 50 38 -3.6 25.5 10.53 0.415
12:39 1021 30.15 850 25.1 10.1 50.2 33 -5.3 22.5 10.68 0.42
12:40 1021 30.15 850 25.1 10.3 50.5 33 -5.3 22.4 10.6 0.417
12:41 1021 30.15 850 25.1 10.3 50.6 32 -5.6 21.9 10.6 0.417
12:42 1021 30.15 850 25.1 10.3 50.5 37 -3.8 25.1 10.54 0.415
12:43 1021 30.15 850 25.1 10.4 50.6 37 -3.5 25.6 10.63 0.419
12:44 1021 30.15 850 25.1 10.3 50.6 32 -5.5 22.1 10.62 0.418
12:45 1021 30.15 850 25.1 10.3 50.5 29 -7 19.5 10.61 0.418
12:46 1021 30.15 850 25.1 10.3 50.5 31 -5.9 21.4 10.49 0.413
12:47 1021 30.15 850 25.1 10.3 50.6 37 -3.7 25.3 10.65 0.419
12:48 1021 30.15 850 25.1 10.5 51 40 -2.5 27.6 10.96 0.431
12:49 1021 30.15 850 25.1 10.7 51.2 34 -4.7 23.6 10.98 0.432
12:50 1021 30.15 850 25.1 10.7 51.3 39 -2.5 27.5 11.01 0.433
12:51 1021 30.15 850 25.1 10.7 51.3 34 -4.3 24.2 11 0.433
12:52 1021 30.15 850 25.1 10.7 51.2 30 -6.4 20.5 10.94 0.431
12:53 1021 30.15 850 25.1 10.5 51 34 -4.7 23.5 10.84 0.427
12:54 1021 30.15 850 25.1 10.5 50.8 45 -0.9 30.3 10.84 0.427
12:55 1021 30.15 850 25.1 10.6 51 30 -6.1 21.1 10.96 0.431
12:56 1021 30.15 850 25.1 10.7 51.2 34 -4.7 23.6 11.1 0.437
12:57 1021 30.15 850 25.1 10.8 51.5 36 -3.5 25.7 11.23 0.442
12:58 1021 30.15 850 25.1 10.9 51.6 36 -3.6 25.5 11.24 0.443
12:59 1021 30.15 850 25.1 10.8 51.4 32 -5.1 22.9 11.17 0.44
13:00 1021 30.15 850 25.1 10.6 51.2 33 -4.9 23.1 11.03 0.434
13:01 1021 30.15 850 25.1 10.5 50.9 33 -5 23 10.92 0.43
13:02 1021 30.15 850 25.1 10.6 51 34 -4.6 23.7 11.03 0.434
13:03 1021 30.15 850 25.1 10.6 51.1 36 -3.9 24.9 11.07 0.436
13:04 1021 30.15 850 25.1 10.6 51 32 -5.5 22.1 10.94 0.431
13:05 1021 30.15 850 25.1 10.5 50.9 32 -5.5 22.1 10.85 0.427
13:06 1021 30.15 850 25.1 10.5 50.9 38 -3.1 26.3 10.9 0.429
13:07 1021 30.15 850 25.1 10.6 51.1 36 -3.8 25.2 10.99 0.433
13:08 1021 30.15 850 25.1 10.7 51.2 31 -5.7 21.8 11.01 0.433
13:09 1021 30.15 850 25.1 10.8 51.5 35 -4.1 24.7 11.19 0.441
13:10 1021 30.15 850 25.1 11.1 51.9 30 -5.6 21.9 11.28 0.444
13:11 1021 30.15 850 25.1 11 51.8 34 -4.4 24.1 11.13 0.438
13:12 1021 30.15 850 25.1 10.9 51.5 30 -6 21.2 11.01 0.433
13:13 1021 30.15 850 25.1 10.8 51.4 36 -3.8 25.2 10.97 0.432
13:14 1021 30.15 850 25.1 10.9 51.5 33 -4.7 23.5 11.18 0.44
13:15 1021 30.15 850 25.1 11 51.9 35 -3.7 25.4 11.27 0.444
13:16 1021 30.15 850 25.1 11 51.9 27 -7.1 19.1 11.25 0.443
13:17 1021 30.15 850 25.1 10.9 51.7 34 -4.4 24 11.24 0.443
13:18 1021 30.15 850 25.1 11 51.8 30 -5.7 21.7 11.43 0.45
13:19 1021 30.15 850 25.1 11 51.8 31 -5.6 21.9 11.49 0.452
13:20 1021 30.15 850 25.1 11.1 52 34 -4 24.9 11.64 0.458
13:21 1021 30.15 850 25.1 11.1 52 35 -3.8 25.1 11.59 0.456
13:22 1021 30.15 850 25.1 11.1 51.9 32 -4.8 23.4 11.57 0.456
13:23 1021 30.15 850 25.1 11.2 52.2 43 -0.8 30.6 11.75 0.463
13:24 1021 30.15 850 25.1 11.5 52.7 35 -3.4 25.9 11.88 0.468
13:25 1021 30.15 850 25.1 11.6 52.9 35 -3.3 26.1 11.92 0.469
13:26 1021 30.15 850 25.1 11.5 52.7 29 -5.7 21.8 11.77 0.463
13:27 1021 30.15 850 25.1 11.4 52.5 28 -6.4 20.5 11.58 0.456
13:28 1021 30.15 850 25.1 11.3 52.4 26 -7.5 18.6 11.48 0.452
13:29 1021 30.15 850 25.1 11.3 52.3 32 -4.7 23.6 11.45 0.451
13:30 1021 30.15 850 25.1 11.3 52.4 34 -3.8 25.1 11.49 0.452
13:31 1021 30.15 850 25.1 11.3 52.3 33 -4.4 24.1 11.45 0.451
13:32 1021 30.15 850 25.1 11.3 52.3 27 -7 19.5 11.48 0.452
13:33 1021 30.15 850 25.1 11.2 52.1 30 -5.8 21.5 11.33 0.446
13:34 1021 30.15 850 25.1 11.1 52 27 -6.9 19.5 11.29 0.444
13:35 1021 30.15 850 25.1 11.1 52 27 -7.1 19.3 11.25 0.443
13:36 1021 30.15 850 25.1 11.1 52 33 -4.4 24 11.38 0.448
13:37 1021 30.15 850 25.1 11.1 51.9 32 -5.1 22.8 11.37 0.448
13:38 1021 30.15 850 25.1 11 51.8 30 -5.8 21.5 11.28 0.444
13:39 1021 30.15 850 25.1 11 51.8 39 -2.5 27.5 11.36 0.447
13:40 1021 30.15 850 25.1 11.1 52 30 -5.9 21.4 11.48 0.452
13:41 1021 30.15 850 25.1 11.2 52.1 32 -5 23 11.48 0.452
13:42 1021 30.15 850 25.1 11.3 52.4 35 -3.6 25.5 11.72 0.461
13:43 1021 30.15 850 25.1 11.4 52.5 42 -1.1 30 11.9 0.469
13:44 1021 30.15 850 25.1 11.7 53 30 -5.1 22.8 12.18 0.48
13:45 1021 30.15 850 25.1 11.7 53.1 31 -4.6 23.6 12.11 0.477
13:46 1021 30.15 850 25.1 11.7 53 42 -0.9 30.4 12.1 0.476
13:47 1021 30.15 850 25.1 11.8 53.3 35 -2.9 26.7 12.27 0.483
13:48 1021 30.15 850 25.1 12.1 53.8 28 -5.7 21.8 12.46 0.491
13:49 1021 30.15 850 25.1 12.1 53.8 32 -4.1 24.5 12.38 0.487
13:50 1021 30.15 850 25.1 12 53.6 27 -6.4 20.4 12.44 0.49
13:51 1021 30.15 850 25.1 11.8 53.2 29 -5.7 21.8 12.35 0.486
13:52 1021 30.15 850 25.1 11.6 52.8 27 -6.8 19.8 12.19 0.48
13:53 1021 30.15 850 25.1 11.5 52.7 27 -6.8 19.8 12.09 0.476
13:54 1021 30.15 850 25.1 11.5 52.7 28 -6.6 20.1 12.02 0.473
13:55 1021 30.15 850 25.1 11.6 52.9 27 -6.7 20 11.97 0.471
13:56 1021 30.15 850 25.1 11.7 53.1 30 -5.3 22.5 12.08 0.476
13:57 1021 30.15 850 25.1 11.9 53.5 29 -5.5 22.1 12.3 0.484
13:58 1021 30.15 850 25.1 12 53.6 40 -1 30.2 12.26 0.483
13:59 1021 30.15 850 25.1 12 53.7 31 -4.6 23.6 12.32 0.485
14:00 1021 30.15 850 25.1 12.1 53.8 29 -5.4 22.3 12.49 0.492
14:01 1021 30.15 850 25.1 12.2 53.9 39 -1.4 29.5 12.68 0.499
14:02 1021 30.15 850 25.1 12.2 54 39 -1.2 29.8 12.76 0.502
14:03 1021 30.15 850 25.1 12.3 54.2 39 -1.1 30 12.76 0.502
14:04 1021 30.15 850 25.1 12.3 54.2 41 -0.6 30.9 12.69 0.5
14:05 1021 30.15 850 25.1 12.4 54.3 31 -4.3 24.2 12.74 0.502
14:06 1021 30.15 850 25.1 12.2 54 26 -6.5 20.3 12.58 0.495
14:07 1021 30.15 850 25.1 12.1 53.7 32 -4 24.9 12.53 0.493
14:08 1021 30.15 850 25.1 12 53.6 27 -6.6 20.2 12.4 0.488
14:09 1021 30.15 850 25.1 11.8 53.3 36 -2.9 26.8 12.24 0.482
14:10 1021 30.15 850 25.1 12 53.6 31 -4.6 23.7 12.45 0.49
14:11 1021 30.15 850 25.1 12 53.7 30 -4.8 23.3 12.44 0.49
14:12 1021 30.15 850 25.1 11.9 53.5 28 -5.9 21.3 12.35 0.486
14:13 1021 30.15 850 25.1 11.8 53.2 29 -5.7 21.7 12.19 0.48
14:14 1021 30.15 850 25.1 11.6 53 30 -5.2 22.6 12.11 0.477
14:15 1021 30.15 850 25.1 11.5 52.8 28 -6.2 20.8 12.03 0.474
14:16 1021 30.15 850 25.1 11.5 52.7 37 -2.7 27.2 12.02 0.473
14:17 1021 30.15 850 25.1 11.7 53.1 27 -6.5 20.3 12.18 0.48
14:18 1021 30.15 850 25.1 11.8 53.2 31 -4.7 23.5 12.07 0.475
14:19 1021 30.15 850 25.1 11.7 53.1 28 -6.2 20.8 12.04 0.474
14:20 1021 30.15 850 25.1 11.7 53.1 33 -3.9 25.1 12.02 0.473
14:21 1021 30.15 850 25.1 11.8 53.3 30 -5 23 12.12 0.477
14:22 1021 30.15 850 25.1 11.9 53.5 33 -3.7 25.4 12.26 0.483
14:23 1021 30.15 850 25.1 12.1 53.8 32 -4 24.9 12.43 0.489
14:24 1021 30.15 850 25.1 12.2 53.9 26 -6.8 19.8 12.42 0.489
14:25 1021 30.15 850 25.1 12 53.6 27 -6.6 20.1 12.15 0.478
14:26 1021 30.15 850 25.1 11.9 53.4 31 -4.6 23.7 11.99 0.472
14:27 1021 30.15 850 25.1 11.9 53.4 35 -3.2 26.2 12.17 0.479
14:28 1021 30.15 850 25.1 12 53.6 28 -5.7 21.8 12.32 0.485
14:29 1021 30.15 850 25.1 12.2 53.9 26 -6.6 20.1 12.31 0.485
14:30 1021 30.15 850 25.1 12.3 54.1 28 -5.8 21.5 12.44 0.49
14:31 1021 30.15 850 25.1 12.3 54.2 31 -4.2 24.5 12.67 0.499
14:32 1021 30.15 850 25.1 12.3 54.2 30 -4.8 23.3 12.67 0.499
14:33 1021 30.15 850 25.1 12.4 54.2 27 -6.3 20.7 12.64 0.498
14:34 1021 30.15 850 25.1 12.3 54.2 26 -6.5 20.3 12.62 0.497
14:35 1021 30.15 850 25.1 12.2 54 33 -3.7 25.3 12.58 0.495
14:36 1021 30.15 850 25.1 12.2 54 30 -4.8 23.3 12.61 0.496
14:37 1021 30.15 850 25.1 12 53.7 35 -2.7 27.1 12.39 0.488
14:38 1021 30.15 850 25.1 11.9 53.4 27 -6.5 20.4 12.31 0.485
14:39 1021 30.15 850 25.1 11.8 53.3 24 -8.1 17.3 12.23 0.481
14:40 1021 30.15 850 25.1 11.8 53.2 24 -7.9 17.7 12.25 0.482
14:41 1021 30.15 850 25.1 11.8 53.2 26 -6.9 19.6 12.36 0.487
14:42 1021 30.15 850 25.1 11.8 53.3 27 -6.7 19.9 12.36 0.487
14:43 1021 30.15 850 25.1 11.9 53.5 25 -7.4 18.6 12.51 0.493
14:44 1021 30.15 850 25.1 11.9 53.5 30 -5.1 22.7 12.48 0.491
14:45 1021 30.15 850 25.1 11.9 53.4 31 -4.7 23.6 12.49 0.492
14:46 1021 30.15 850 25.1 12.1 53.7 28 -6.1 21.1 12.63 0.497
14:47 1021 30.15 850 25.1 12.3 54.1 25 -7.3 18.9 12.75 0.502
14:48 1021 30.15 850 25.1 12.5 54.4 25 -6.8 19.7 12.95 0.51
14:49 1021 30.15 850 25.1 12.7 54.8 27 -5.7 21.7 13.22 0.52
14:50 1021 30.15 850 25.1 12.7 54.8 33 -3.2 26.2 13.16 0.518
14:51 1021 30.15 850 25.1 12.7 54.8 27 -5.7 21.7 13.18 0.519
14:52 1021 30.15 850 25.1 12.6 54.7 31 -3.9 25 13.15 0.518
14:53 1021 30.15 850 25.1 12.6 54.7 32 -3.5 25.7 13.08 0.515
14:54 1021 30.15 850 25.1 12.7 54.8 28 -5.2 22.6 13.11 0.516
14:55 1021 30.15 850 25.1 12.8 55 32 -3.5 25.7 13.14 0.517
14:56 1021 30.15 850 25.1 12.8 55.1 26 -6.2 20.8 13.24 0.521
14:57 1021 30.15 850 25.1 12.8 55 30 -4.2 24.4 13.14 0.517
14:58 1021 30.15 850 25.1 12.5 54.6 26 -6.2 20.8 12.88 0.507
14:59 1021 30.15 850 25.1 12.4 54.4 28 -5.7 21.8 12.78 0.503
15:00 1021 30.15 850 25.1 12.3 54.2 22 -9.1 15.7 12.71 0.5
15:01 1021 30.15 850 25.1 12.2 54 29 -5.1 22.8 12.56 0.494
15:02 1021 30.15 850 25.1 12.3 54.2 25 -7 19.4 12.74 0.502
15:03 1021 30.15 850 25.1 12.5 54.5 30 -4.5 23.9 12.78 0.503
15:04 1021 30.15 850 25.1 12.6 54.6 23 -8.1 17.4 12.71 0.5
15:05 1021 30.15 850 25.1 12.5 54.5 21 -9.3 15.2 12.64 0.498
15:06 1021 30.15 850 25.1 12.6 54.7 27 -5.7 21.7 12.65 0.498
15:07 1021 30.15 850 25.1 12.6 54.6 30 -4.7 23.5 12.74 0.502
15:08 1021 30.15 850 25.1 12.6 54.8 20 -9.8 14.3 12.85 0.506
15:09 1021 30.15 850 25.1 12.5 54.5 27 -6.1 21.1 12.75 0.502
15:10 1021 30.15 850 25.1 12.5 54.5 23 -7.8 17.9 12.88 0.507
15:11 1021 30.15 850 25.1 12.6 54.6 25 -6.7 19.9 12.96 0.51
15:12 1021 30.15 850 25.1 12.6 54.6 21 -9.3 15.3 12.93 0.509
15:13 1021 30.15 850 25.1 12.5 54.5 21 -9.3 15.3 12.82 0.505
15:14 1021 30.15 850 25.1 12.6 54.6 28 -5.3 22.5 12.88 0.507
15:15 1021 30.15 850 25.1 12.7 54.9 24 -7.3 18.9 13.03 0.513
15:16 1021 30.15 850 25.1 12.8 55.1 31 -3.8 25.2 13.08 0.515
15:17 1021 30.15 850 25.1 12.8 55 22 -8.3 17 13.13 0.517
15:18 1021 30.15 850 25.1 12.7 54.9 31 -4.1 24.6 13.05 0.514
15:19 1021 30.15 850 25.1 12.8 55 22 -8.4 16.9 13.07 0.515
15:20 1021 30.15 850 25.1 12.7 54.8 21 -9.2 15.4 12.93 0.509
15:21 1021 30.15 850 25.1 12.6 54.6 27 -6.1 21.1 12.95 0.51
15:22 1021 30.15 850 25.1 12.6 54.7 29 -4.8 23.3 13.04 0.513
15:23 1021 30.15 850 25.1 12.6 54.8 21 -9.3 15.2 13.01 0.512
15:24 1021 30.15 850 25.1 12.5 54.5 21 -9 15.9 12.95 0.51
15:25 1021 30.15 850 25.1 12.4 54.3 23 -8.1 17.5 12.84 0.506
15:26 1021 30.15 850 25.1 12.4 54.3 31 -4.4 24 12.91 0.508
15:27 1021 30.15 850 25.1 12.5 54.5 25 -7 19.5 13.04 0.513
15:28 1021 30.15 850 25.1 12.6 54.7 22 -8.8 16.2 13.15 0.518
15:29 1021 30.15 850 25.1 12.7 54.9 30 -4.2 24.4 13.3 0.524
15:30 1021 30.15 850 25.1 12.9 55.2 24 -7.3 18.9 13.39 0.527
15:31 1021 30.15 850 25.1 12.9 55.2 24 -7 19.4 13.36 0.526
15:32 1020 30.12 850 25.1 12.8 55 27 -5.7 21.7 13.28 0.523
15:33 1021 30.15 850 25.1 12.8 55 29 -4.7 23.5 13.34 0.525
15:34 1020 30.12 850 25.1 12.9 55.3 23 -7.8 18 13.42 0.528
15:35 1020 30.12 850 25.1 13 55.4 25 -6.7 19.9 13.53 0.533
15:36 1020 30.12 850 25.1 13.1 55.5 23 -7.3 18.8 13.57 0.534
15:37 1020 30.12 850 25.1 13.1 55.5 26 -5.9 21.4 13.64 0.537
15:38 1020 30.12 850 25.1 13.3 55.9 26 -6 21.1 13.79 0.543
15:39 1020 30.12 850 25.1 13.3 56 25 -6.5 20.3 13.86 0.546
15:40 1020 30.12 850 25.1 13.2 55.7 28 -5.1 22.9 13.74 0.541
15:41 1020 30.12 850 25.1 13.2 55.8 27 -5.2 22.7 13.79 0.543
15:42 1020 30.12 850 25.1 13.2 55.7 21 -8.6 16.5 13.67 0.538
15:43 1020 30.12 850 25.1 13.1 55.5 24 -7.2 19.1 13.62 0.536
15:44 1020 30.12 850 25.1 13.1 55.6 23 -7.6 18.3 13.69 0.539
15:45 1020 30.12 850 25.1 13.2 55.8 21 -8.5 16.7 13.81 0.544
15:46 1020 30.12 850 25.1 13.4 56.2 31 -3.4 25.9 14.03 0.552
15:47 1020 30.12 850 25.1 13.6 56.4 24 -6.4 20.5 14.19 0.559
15:48 1020 30.12 850 25.1 13.6 56.5 26 -5.2 22.6 14.22 0.56
15:49 1020 30.12 849 25.07 13.7 56.7 27 -5 23.1 14.21 0.559
15:50 1020 30.12 850 25.1 13.6 56.6 22 -7.6 18.4 14.01 0.552
15:51 1020 30.12 850 25.1 13.5 56.3 22 -7.7 18.2 13.78 0.543
15:52 1020 30.12 850 25.1 13.4 56.1 22 -8.1 17.5 13.47 0.53
15:53 1020 30.12 850 25.1 13.3 55.9 24 -6.6 20.1 13.44 0.529
15:54 1020 30.12 850 25.1 13.3 55.9 21 -8.8 16.2 13.59 0.535
15:55 1020 30.12 850 25.1 13.2 55.8 24 -7 19.5 13.64 0.537
15:56 1020 30.12 850 25.1 13.4 56 23 -7.1 19.2 13.77 0.542
15:57 1020 30.12 850 25.1 13.5 56.2 26 -5.4 22.2 13.68 0.539
15:58 1020 30.12 850 25.1 13.5 56.2 21 -8.3 17.1 13.71 0.54
15:59 1020 30.12 850 25.1 13.3 55.9 20 -8.9 16 13.45 0.53
16:00 1020 30.12 850 25.1 13.2 55.7 24 -6.7 19.9 13.33 0.525
16:01 1020 30.12 850 25.1 13.2 55.8 22 -7.9 17.7 13.48 0.531
16:02 1020 30.12 850 25.1 13.2 55.8 23 -7.2 19 13.59 0.535
16:03 1020 30.12 850 25.1 13.3 56 32 -3 26.6 13.67 0.538
16:04 1020 30.12 850 25.1 13.5 56.2 27 -5.3 22.5 13.86 0.546
16:05 1020 30.12 850 25.1 13.5 56.3 28 -4.4 24.1 13.95 0.549
16:06 1020 30.12 850 25.1 13.5 56.3 25 -6.2 20.8 13.98 0.55
16:07 1020 30.12 849 25.07 13.5 56.2 28 -4.7 23.5 13.94 0.549
16:08 1020 30.12 849 25.07 13.4 56.2 29 -4.1 24.7 13.92 0.548
16:09 1020 30.12 849 25.07 13.5 56.2 23 -7 19.4 13.93 0.548
16:10 1020 30.12 849 25.07 13.3 56 28 -4.9 23.1 13.78 0.543
16:11 1020 30.12 849 25.07 13.2 55.8 29 -4.3 24.3 13.69 0.539
16:12 1020 30.12 850 25.1 13.3 55.9 27 -5.3 22.5 13.74 0.541
16:13 1020 30.12 850 25.1 13.4 56.1 30 -3.7 25.4 13.85 0.545
16:14 1020 30.12 850 25.1 13.5 56.3 27 -4.9 23.1 13.94 0.549
16:15 1020 30.12 850 25.1 13.6 56.6 22 -7.6 18.3 13.96 0.55
16:16 1020 30.12 849 25.07 13.6 56.5 27 -4.7 23.5 13.92 0.548
16:17 1020 30.12 850 25.1 13.7 56.6 25 -5.8 21.5 14 0.551
16:18 1020 30.12 850 25.1 13.6 56.4 26 -5.3 22.4 13.99 0.551
16:19 1020 30.12 850 25.1 13.4 56.2 27 -5.1 22.8 13.84 0.545
16:20 1020 30.12 850 25.1 13.3 56 25 -6.3 20.6 13.8 0.543
16:21 1020 30.12 849 25.07 13.3 55.9 22 -7.7 18.1 13.77 0.542
16:22 1020 30.12 850 25.1 13.2 55.7 22 -8.1 17.4 13.64 0.537
16:23 1020 30.12 849 25.07 13.1 55.6 22 -7.9 17.7 13.48 0.531
16:24 1020 30.12 849 25.07 13 55.4 24 -7.3 18.8 13.52 0.532
16:25 1020 30.12 849 25.07 13 55.4 23 -7.8 18 13.44 0.529
16:26 1020 30.12 849 25.07 13 55.4 23 -7.6 18.3 13.51 0.532
16:27 1020 30.12 849 25.07 13.2 55.8 26 -6 21.2 13.76 0.542
16:28 1020 30.12 849 25.07 13.4 56 22 -8 17.5 14.01 0.552
16:29 1020 30.12 849 25.07 13.4 56.2 30 -3.6 25.6 14.04 0.553
16:30 1020 30.12 849 25.07 13.5 56.4 27 -5.2 22.6 14.13 0.556
16:31 1020 30.12 849 25.07 13.5 56.3 22 -7.9 17.7 13.99 0.551
16:32 1020 30.12 849 25.07 13.4 56.1 24 -7 19.4 13.85 0.545
16:33 1020 30.12 849 25.07 13.3 56 25 -6.5 20.3 13.77 0.542
16:34 1020 30.12 849 25.07 13.3 55.9 24 -6.7 20 13.83 0.544
16:35 1020 30.12 849 25.07 13.4 56.2 23 -7.1 19.3 13.96 0.55
16:36 1020 30.12 849 25.07 13.7 56.7 23 -6.9 19.5 14.21 0.559
16:37 1020 30.12 849 25.07 13.7 56.7 23 -6.9 19.5 14.31 0.563
16:38 1020 30.12 849 25.07 13.7 56.7 23 -6.9 19.6 14.35 0.565
16:39 1020 30.12 849 25.07 13.7 56.7 26 -5.5 22.1 14.32 0.564
16:40 1020 30.12 849 25.07 13.9 56.9 23 -6.6 20 14.48 0.57
16:41 1020 30.12 849 25.07 13.8 56.9 28 -4.3 24.2 14.4 0.567
16:42 1020 30.12 849 25.07 13.6 56.5 24 -6.3 20.7 14.14 0.557
16:43 1020 30.12 849 25.07 13.2 55.8 25 -6.5 20.3 13.72 0.54
16:44 1020 30.12 849 25.07 13 55.4 25 -6.4 20.4 13.51 0.532
16:45 1020 30.12 849 25.07 13.1 55.6 27 -5.5 22.1 13.63 0.537
16:46 1020 30.12 849 25.07 13.3 55.9 23 -7.2 19 13.67 0.538
16:47 1020 30.12 849 25.07 13.3 55.9 24 -6.9 19.6 13.73 0.541
16:48 1020 30.12 849 25.07 13.4 56.1 26 -5.9 21.4 13.79 0.543
16:49 1020 30.12 849 25.07 13.5 56.3 30 -3.8 25.2 13.9 0.547
16:50 1020 30.12 849 25.07 13.7 56.7 23 -6.7 19.9 14.14 0.557
16:51 1020 30.12 849 25.07 13.9 57 26 -5.3 22.5 14.17 0.558
16:52 1020 30.12 849 25.07 13.9 57.1 28 -4.3 24.3 14.21 0.559
16:53 1020 30.12 849 25.07 14 57.2 23 -6.9 19.6 14.07 0.554
16:54 1020 30.12 849 25.07 14 57.1 25 -5.6 22 14.04 0.553
16:55 1020 30.12 849 25.07 14 57.2 26 -5.2 22.6 14.16 0.557
16:56 1020 30.12 849 25.07 13.9 57.1 26 -5.2 22.6 14.16 0.557
16:57 1020 30.12 849 25.07 13.9 57 28 -4.2 24.4 14.17 0.558
16:58 1020 30.12 849 25.07 14 57.2 31 -2.9 26.9 14.28 0.562
16:59 1020 30.12 849 25.07 14 57.2 25 -5.7 21.7 14.35 0.565
17:00 1020 30.12 849 25.07 14.1 57.3 29 -3.6 25.4 14.42 0.568
17:01 1020 30.12 849 25.07 14.2 57.6 26 -5.1 22.8 14.61 0.575
17:02 1020 30.12 849 25.07 14.4 57.9 26 -5 22.9 14.8 0.583
17:03 1020 30.12 849 25.07 14.5 58.1 25 -5 23 14.8 0.583
17:04 1020 30.12 849 25.07 14.3 57.8 22 -6.9 19.6 14.67 0.578
17:05 1020 30.12 849 25.07 14 57.1 23 -7 19.4 14.37 0.566
17:06 1020 30.12 849 25.07 13.7 56.7 21 -8 17.5 14.24 0.561
17:07 1020 30.12 849 25.07 13.8 56.8 25 -5.9 21.5 14.26 0.561
17:08 1020 30.12 849 25.07 13.9 57 25 -5.8 21.6 14.44 0.569
17:09 1020 30.12 849 25.07 13.9 57 24 -6.3 20.6 14.46 0.569
17:10 1020 30.12 849 25.07 13.8 56.9 27 -5 23 14.39 0.567
17:11 1020 30.12 849 25.07 13.8 56.9 26 -5.1 22.8 14.41 0.567
17:12 1020 30.12 849 25.07 13.8 56.9 25 -5.9 21.4 14.38 0.566
17:13 1020 30.12 849 25.07 13.7 56.6 27 -5 23 14.16 0.557
17:14 1020 30.12 849 25.07 13.7 56.6 27 -5.2 22.7 14.16 0.557
17:15 1020 30.12 849 25.07 13.6 56.5 26 -5.6 21.8 14.2 0.559
17:16 1020 30.12 849 25.07 13.7 56.6 24 -6.4 20.5 14.24 0.561
17:17 1020 30.12 849 25.07 13.5 56.4 27 -5.3 22.5 14.12 0.556
17:18 1020 30.12 849 25.07 13.5 56.3 31 -3.4 25.9 14.07 0.554
17:19 1020 30.12 849 25.07 13.7 56.6 28 -4.6 23.7 14.2 0.559
17:20 1020 30.12 849 25.07 13.8 56.9 23 -7 19.3 14.33 0.564
17:21 1020 30.12 849 25.07 13.8 56.9 25 -5.9 21.4 14.29 0.563
17:22 1020 30.12 849 25.07 13.8 56.8 24 -6.5 20.3 14.16 0.557
17:23 1020 30.12 849 25.07 13.7 56.7 25 -5.7 21.7 14.08 0.554
17:24 1020 30.12 849 25.07 13.8 56.8 25 -5.9 21.4 14.06 0.554
17:25 1020 30.12 849 25.07 13.9 56.9 28 -4.1 24.7 14.11 0.556
17:26 1020 30.12 849 25.07 13.9 57.1 29 -3.7 25.3 14.15 0.557
17:27 1020 30.12 849 25.07 14 57.3 24 -6.1 21.1 14.22 0.56
17:28 1020 30.12 849 25.07 14 57.2 25 -5.6 22 14.1 0.555
17:29 1020 30.12 849 25.07 13.9 57 22 -7.6 18.3 14.02 0.552
17:30 1020 30.12 849 25.07 13.8 56.9 23 -7 19.5 13.9 0.547
17:31 1020 30.12 849 25.07 13.8 56.8 24 -6.2 20.8 13.87 0.546
17:32 1020 30.12 849 25.07 13.8 56.8 30 -3.2 26.2 13.95 0.549
17:33 1020 30.12 849 25.07 13.8 56.9 24 -6.1 21 14.11 0.556
17:34 1020 30.12 849 25.07 13.9 57 23 -6.7 19.9 14.08 0.554
17:35 1020 30.12 849 25.07 14 57.3 23 -6.4 20.4 14.27 0.562
17:36 1020 30.12 849 25.07 14.2 57.5 23 -6.6 20.2 14.3 0.563
17:37 1020 30.12 849 25.07 14 57.2 23 -6.7 19.9 14.05 0.553
17:38 1020 30.12 849 25.07 13.8 56.9 23 -7 19.5 13.97 0.55
17:39 1020 30.12 849 25.07 13.7 56.6 27 -4.9 23.2 13.89 0.547
17:40 1020 30.12 849 25.07 13.7 56.7 26 -5.3 22.4 13.95 0.549
17:41 1020 30.12 849 25.07 13.7 56.7 29 -3.8 25.2 13.99 0.551
17:42 1020 30.12 849 25.07 13.7 56.6 24 -6.3 20.7 13.93 0.548
17:43 1020 30.12 849 25.07 13.6 56.5 32 -2.5 27.4 13.9 0.547
17:44 1020 30.12 849 25.07 13.7 56.6 23 -6.9 19.6 13.98 0.55
17:45 1020 30.12 849 25.07 13.6 56.5 28 -4.3 24.3 13.84 0.545
17:46 1020 30.12 849 25.07 13.5 56.2 28 -4.6 23.6 13.7 0.539
17:47 1020 30.12 849 25.07 13.3 56 24 -7 19.5 13.54 0.533
17:48 1020 30.12 849 25.07 13.2 55.7 27 -5.5 22.1 13.4 0.528
17:49 1020 30.12 849 25.07 13.1 55.5 25 -6.2 20.8 13.33 0.525
17:50 1020 30.12 849 25.07 13 55.4 24 -6.9 19.6 13.25 0.522
17:51 1020 30.12 849 25.07 13 55.3 25 -6.7 19.9 13.23 0.521
17:52 1020 30.12 849 25.07 13 55.4 31 -3.6 25.4 13.27 0.522
17:53 1020 30.12 849 25.07 13.1 55.5 26 -5.8 21.5 13.38 0.527
17:54 1020 30.12 849 25.07 13.1 55.5 23 -7.3 18.8 13.36 0.526
17:55 1020 30.12 849 25.07 13 55.4 26 -6.2 20.9 13.34 0.525
17:56 1020 30.12 849 25.07 13 55.4 31 -3.8 25.2 13.37 0.526
17:57 1020 30.12 849 25.07 13 55.4 31 -3.7 25.4 13.31 0.524
17:58 1020 30.12 849 25.07 12.9 55.3 28 -4.9 23.2 13.25 0.522
17:59 1020 30.12 849 25.07 12.9 55.2 26 -6.2 20.9 13.19 0.519
18:00 1020 30.12 849 25.07 12.9 55.3 32 -3.1 26.4 13.27 0.522
18:01 1020 30.12 849 25.07 13.1 55.6 27 -5.3 22.5 13.42 0.528
18:02 1020 30.12 849 25.07 13.1 55.6 25 -6.2 20.9 13.44 0.529
18:03 1020 30.12 849 25.07 13.1 55.5 32 -3.3 26 13.36 0.526
18:04 1020 30.12 849 25.07 13 55.4 30 -4.2 24.4 13.32 0.524
18:05 1020 30.12 849 25.07 13 55.3 27 -5.4 22.3 13.28 0.523
18:06 1020 30.12 849 25.07 12.9 55.2 27 -5.7 21.8 13.17 0.519
18:07 1020 30.12 849 25.07 12.8 55 26 -6.2 20.8 13.11 0.516
18:08 1020 30.12 849 25.07 12.7 54.9 24 -7.2 19 13.04 0.513
18:09 1020 30.12 849 25.07 12.7 54.8 26 -6 21.1 13.01 0.512
18:10 1020 30.12 849 25.07 12.8 55 27 -5.5 22.1 13.08 0.515
18:11 1020 30.12 849 25.07 12.8 55.1 26 -6.4 20.5 13.12 0.517
18:12 1020 30.12 849 25.07 12.8 55.1 27 -5.4 22.2 13.16 0.518
18:13 1020 30.12 849 25.07 12.9 55.2 26 -5.9 21.3 13.2 0.52
18:14 1020 30.12 849 25.07 13 55.4 29 -4.7 23.5 13.33 0.525
18:15 1020 30.12 849 25.07 13.1 55.6 29 -4.4 24 13.49 0.531
18:16 1020 30.12 849 25.07 13.3 55.9 25 -6.6 20.2 13.63 0.537
18:17 1020 30.12 849 25.07 13.3 56 26 -5.6 21.9 13.64 0.537
18:18 1020 30.12 849 25.07 13.4 56.1 29 -4.3 24.2 13.71 0.54
18:19 1020 30.12 849 25.07 13.5 56.2 25 -6 21.2 13.79 0.543
18:20 1020 30.12 849 25.07 13.4 56.2 23 -7 19.4 13.71 0.54
18:21 1020 30.12 849 25.07 13.4 56.1 25 -6.3 20.7 13.79 0.543
18:22 1020 30.12 849 25.07 13.4 56.2 27 -4.9 23.1 13.77 0.542
18:23 1020 30.12 849 25.07 13.5 56.2 26 -5.4 22.2 13.88 0.546
18:24 1020 30.12 849 25.07 13.5 56.3 28 -4.8 23.3 13.91 0.548
18:25 1020 30.12 849 25.07 13.5 56.3 27 -5.3 22.5 13.92 0.548
18:26 1020 30.12 849 25.07 13.5 56.3 23 -7.1 19.2 13.95 0.549
18:27 1020 30.12 849 25.07 13.5 56.3 26 -5.8 21.5 13.97 0.55
18:28 1020 30.12 849 25.07 13.5 56.3 25 -6.1 21 14.07 0.554
18:29 1020 30.12 849 25.07 13.5 56.4 26 -5.4 22.2 14.16 0.557
18:30 1020 30.12 849 25.07 13.6 56.4 31 -3.1 26.4 14.25 0.561
18:31 1020 30.12 849 25.07 13.5 56.4 27 -5 22.9 14.26 0.561
18:32 1020 30.12 849 25.07 13.5 56.3 26 -5.4 22.3 14.23 0.56
18:33 1020 30.12 849 25.07 13.5 56.4 29 -3.9 25 14.28 0.562
18:34 1020 30.12 849 25.07 13.6 56.5 29 -4 24.9 14.31 0.563
18:35 1020 30.12 849 25.07 13.6 56.6 24 -6.3 20.7 14.24 0.561
18:36 1020 30.12 849 25.07 13.6 56.6 23 -6.8 19.8 14.07 0.554
18:37 1020 30.12 849 25.07 13.6 56.5 27 -5 23 14.05 0.553
18:38 1020 30.12 849 25.07 13.6 56.5 27 -4.9 23.2 14.09 0.555
18:39 1020 30.12 849 25.07 13.6 56.4 24 -6.4 20.4 14.12 0.556
18:40 1020 30.12 849 25.07 13.6 56.4 29 -4.2 24.5 14.19 0.559
18:41 1020 30.12 849 25.07 13.6 56.4 29 -4 24.8 14.3 0.563
18:42 1020 30.12 849 25.07 13.5 56.4 27 -4.9 23.1 14.28 0.562
18:43 1020 30.12 849 25.07 13.5 56.3 29 -4.1 24.7 14.26 0.561
18:44 1020 30.12 849 25.07 13.5 56.4 24 -6.8 19.8 14.23 0.56
18:45 1020 30.12 849 25.07 13.5 56.4 25 -5.9 21.3 14.23 0.56
18:46 1020 30.12 849 25.07 13.5 56.4 24 -6.7 20 14.24 0.561
18:47 1020 30.12 849 25.07 13.5 56.2 27 -5.1 22.8 14.19 0.559
18:48 1020 30.12 849 25.07 13.4 56.2 32 -3 26.6 14.18 0.558
18:49 1020 30.12 849 25.07 13.4 56.1 30 -3.8 25.1 14.1 0.555
18:50 1020 30.12 849 25.07 13.3 56 24 -6.8 19.7 13.99 0.551
18:51 1020 30.12 849 25.07 13.2 55.7 24 -7.1 19.3 13.82 0.544
18:52 1020 30.12 849 25.07 13.1 55.6 26 -6 21.2 13.7 0.539
18:53 1020 30.12 849 25.07 13 55.4 23 -7.3 18.8 13.65 0.537
18:54 1020 30.12 849 25.07 13 55.3 23 -7.5 18.5 13.6 0.535
18:55 1020 30.12 849 25.07 13 55.3 23 -7.6 18.2 13.55 0.533
18:56 1020 30.12 849 25.07 12.9 55.3 25 -6.8 19.7 13.52 0.532
18:57 1020 30.12 849 25.07 12.9 55.2 24 -7.3 18.9 13.47 0.53
18:58 1020 30.12 849 25.07 12.9 55.2 23 -7.5 18.6 13.46 0.53
18:59 1020 30.12 849 25.07 12.9 55.3 23 -7.9 17.8 13.45 0.53
19:00 1020 30.12 849 25.07 13 55.4 23 -7.9 17.8 13.49 0.531
19:01 1020 30.12 849 25.07 13.2 55.7 24 -7.2 19.1 13.63 0.537
19:02 1020 30.12 849 25.07 13.4 56 27 -5.4 22.3 13.86 0.546
19:03 1020 30.12 849 25.07 13.3 56 25 -6.5 20.4 13.8 0.543
19:04 1020 30.12 849 25.07 13.2 55.8 25 -6.1 21.1 13.68 0.539
19:05 1020 30.12 849 25.07 13.2 55.8 27 -5.1 22.9 13.71 0.54
19:06 1020 30.12 849 25.07 13.2 55.7 22 -7.8 18 13.64 0.537
19:07 1020 30.12 849 25.07 13.2 55.8 25 -6.3 20.6 13.72 0.54
19:08 1020 30.12 849 25.07 13.3 55.9 30 -3.8 25.2 13.78 0.543
19:09 1020 30.12 849 25.07 13.3 55.9 26 -5.6 21.9 13.8 0.543
19:10 1020 30.12 849 25.07 13.3 55.9 25 -6.5 20.3 13.82 0.544
19:11 1020 30.12 849 25.07 13.3 55.9 28 -4.7 23.5 13.77 0.542
19:12 1020 30.12 849 25.07 13.1 55.6 27 -5.5 22.1 13.69 0.539
19:13 1020 30.12 849 25.07 13.1 55.5 26 -5.9 21.4 13.64 0.537
19:14 1020 30.12 849 25.07 13 55.4 28 -5.2 22.6 13.61 0.536
19:15 1020 30.12 849 25.07 13 55.4 24 -7.1 19.2 13.56 0.534
19:16 1020 30.12 849 25.07 13.1 55.5 27 -5.5 22.2 13.62 0.536
19:17 1020 30.12 849 25.07 13.1 55.6 27 -5.5 22 13.67 0.538
19:18 1020 30.12 849 25.07 13.1 55.5 26 -6.2 20.9 13.68 0.539
19:19 1020 30.12 849 25.07 13 55.5 25 -6.6 20 13.62 0.536
19:20 1020 30.12 849 25.07 13 55.4 23 -7.6 18.3 13.6 0.535
19:21 1020 30.12 849 25.07 13.1 55.5 23 -7.9 17.9 13.63 0.537
19:22 1020 30.12 849 25.07 13.2 55.8 25 -6.3 20.6 13.74 0.541
19:23 1020 30.12 849 25.07 13.2 55.8 28 -4.9 23.1 13.82 0.544
19:24 1020 30.12 849 25.07 13.3 55.9 29 -4.3 24.3 13.82 0.544
19:25 1020 30.12 849 25.07 13.2 55.8 23 -7.5 18.6 13.79 0.543
19:26 1020 30.12 849 25.07 13.3 55.9 23 -7.4 18.7 13.77 0.542
19:27 1020 30.12 849 25.07 13.3 56 27 -5.4 22.3 13.86 0.546
19:28 1020 30.12 849 25.07 13.3 55.9 31 -3.2 26.2 13.84 0.545
19:29 1020 30.12 849 25.07 13.2 55.7 27 -5.3 22.5 13.63 0.537
19:30 1020 30.12 849 25.07 13 55.4 31 -3.7 25.3 13.49 0.531
19:31 1020 30.12 849 25.07 12.9 55.2 32 -3.2 26.3 13.35 0.526
19:32 1020 30.12 849 25.07 12.7 54.8 32 -3.3 26 13.2 0.52
19:33 1020 30.12 849 25.07 12.6 54.7 26 -6.3 20.6 13.07 0.515
19:34 1020 30.12 849 25.07 12.6 54.7 28 -5.5 22.1 13.04 0.513
19:35 1020 30.12 849 25.07 12.6 54.7 30 -4.2 24.4 13.07 0.515
19:36 1020 30.12 849 25.07 12.6 54.7 28 -5.4 22.2 13.06 0.514
19:37 1020 30.12 849 25.07 12.6 54.7 26 -6.1 21 13.04 0.513
19:38 1020 30.12 849 25.07 12.7 54.8 29 -4.6 23.6 13.07 0.515
19:39 1020 30.12 849 25.07 12.6 54.7 30 -4.6 23.7 13.05 0.514
19:40 1020 30.12 849 25.07 12.6 54.6 32 -3.8 25.1 13.01 0.512
19:41 1020 30.12 849 25.07 12.5 54.5 34 -2.8 27 12.93 0.509
19:42 1020 30.12 849 25.07 12.4 54.3 33 -3.4 25.9 12.86 0.506
19:43 1020 30.12 849 25.07 12.3 54.1 28 -5.5 22.1 12.73 0.501
19:44 1020 30.12 849 25.07 12.3 54.1 31 -4.4 24 12.68 0.499
19:45 1020 30.12 849 25.07 12.2 54 28 -5.7 21.8 12.65 0.498
19:46 1020 30.12 849 25.07 12.2 53.9 29 -5.1 22.9 12.59 0.496
19:47 1020 30.12 849 25.07 12.2 53.9 31 -4.3 24.2 12.55 0.494
19:48 1020 30.12 849 25.07 12.1 53.8 36 -2.5 27.5 12.48 0.491
19:49 1020 30.12 849 25.07 11.9 53.4 39 -1.5 29.3 12.27 0.483
19:50 1020 30.12 849 25.07 11.7 53 41 -1.2 29.8 12.08 0.476
19:51 1020 30.12 849 25.07 11.5 52.7 41 -1.2 29.8 11.9 0.469
19:52 1020 30.12 849 25.07 11.4 52.4 43 -0.7 30.7 11.77 0.463
19:53 1020 30.12 849 25.07 11.2 52.1 44 -0.8 30.6 11.57 0.456
19:54 1020 30.12 849 25.07 11 51.8 43 -1 30.2 11.42 0.45
19:55 1020 30.12 849 25.07 10.9 51.6 42 -1.6 29.1 11.23 0.442
19:56 1020 30.12 849 25.07 10.8 51.5 41 -2 28.5 11.19 0.441
19:57 1020 30.12 849 25.07 10.8 51.4 41 -1.9 28.7 11.14 0.439
19:58 1020 30.12 850 25.1 10.8 51.4 42 -1.5 29.3 11.15 0.439
19:59 1020 30.12 850 25.1 10.7 51.2 42 -1.7 28.9 11.05 0.435
20:00 1020 30.12 849 25.07 10.6 51.1 42 -1.6 29.1 10.99 0.433
20:01 1020 30.12 850 25.1 10.6 51 40 -2.6 27.4 10.97 0.432
20:02 1020 30.12 849 25.07 10.5 50.9 42 -1.8 28.8 10.91 0.43
20:03 1020 30.12 850 25.1 10.4 50.7 42 -2 28.5 10.8 0.425
20:04 1020 30.12 850 25.1 10.3 50.6 41 -2.3 27.9 10.74 0.423
20:05 1020 30.12 850 25.1 10.4 50.7 40 -2.7 27.2 10.69 0.421
20:06 1020 30.12 850 25.1 10.4 50.7 41 -2.2 28.1 10.72 0.422
20:07 1020 30.12 850 25.1 10.3 50.5 44 -1.3 29.7 10.67 0.42
20:08 1020 30.12 850 25.1 10.1 50.2 46 -1 30.1 10.55 0.415
20:09 1020 30.12 850 25.1 10 49.9 47 -0.9 30.4 10.36 0.408
20:10 1020 30.12 850 25.1 9.8 49.6 48 -0.7 30.7 10.18 0.401
20:11 1020 30.12 850 25.1 9.6 49.2 50 -0.4 31.2 10.01 0.394
20:12 1020 30.12 850 25.1 9.4 48.9 49 -0.7 30.7 9.79 0.385
20:13 1020 30.12 850 25.1 9.3 48.7 48 -1.1 30 9.66 0.38
20:14 1020 30.12 850 25.1 9.3 48.8 45 -1.9 28.5 9.65 0.38
20:15 1020 30.12 850 25.1 9.4 48.9 45 -1.8 28.7 9.73 0.383
20:16 1020 30.12 850 25.1 9.5 49.2 39 -3.7 25.3 9.85 0.388
20:17 1020 30.12 850 25.1 9.9 49.8 35 -4.7 23.6 10.17 0.4
20:18 1020 30.12 850 25.1 10.4 50.6 34 -4.9 23.2 10.56 0.416
20:19 1020 30.12 850 25.1 10.5 50.9 33 -5.2 22.7 10.75 0.423
20:20 1020 30.12 850 25.1 10.6 51.1 32 -5.3 22.4 10.84 0.427
20:21 1020 30.12 850 25.1 10.8 51.4 35 -3.9 24.9 11.01 0.433
20:22 1020 30.12 850 25.1 10.8 51.4 33 -4.7 23.5 11 0.433
20:23 1020 30.12 850 25.1 10.8 51.5 33 -4.9 23.2 11.16 0.439
20:24 1020 30.12 850 25.1 10.8 51.5 38 -2.9 26.8 11.13 0.438
20:25 1020 30.12 850 25.1 10.6 51.2 37 -3.5 25.7 10.95 0.431
20:26 1020 30.12 850 25.1 10.5 50.8 37 -3.5 25.8 10.8 0.425
20:27 1020 30.12 850 25.1 10.3 50.6 39 -3.1 26.4 10.65 0.419
20:28 1020 30.12 850 25.1 10.2 50.4 41 -2.4 27.7 10.58 0.417
20:29 1020 30.12 850 25.1 9.9 49.9 42 -2.5 27.5 10.3 0.406
20:30 1020 30.12 850 25.1 9.7 49.5 40 -3.1 26.4 10.1 0.398
20:31 1020 30.12 850 25.1 9.6 49.2 45 -1.9 28.7 9.94 0.391
20:32 1020 30.12 850 25.1 9.2 48.5 38 -4.3 24.3 9.5 0.374
20:33 1020 30.12 850 25.1 9.1 48.5 40 -3.7 25.4 9.4 0.37
20:34 1020 30.12 850 25.1 9 48.2 41 -3.6 25.5 9.25 0.364
20:35 1020 30.12 850 25.1 8.9 48 43 -2.9 26.7 9.15 0.36
20:36 1020 30.12 850 25.1 8.9 48 41 -3.7 25.4 9.16 0.361
20:37 1020 30.12 850 25.1 9 48.1 42 -3.2 26.3 9.21 0.363
20:38 1021 30.15 850 25.1 9 48.1 37 -5 22.9 9.18 0.361
20:39 1021 30.15 850 25.1 9.1 48.3 42 -3 26.5 9.3 0.366
20:40 1021 30.15 850 25.1 8.9 48 40 -3.8 25.1 9.12 0.359
20:41 1020 30.12 850 25.1 8.8 47.9 42 -3.3 26 9.04 0.356
20:42 1020 30.12 850 25.1 8.4 47.2 49 -1.7 28.9 8.74 0.344
20:43 1021 30.15 850 25.1 7.7 45.9 48 -2.6 27.2 8.1 0.319
20:44 1020 30.12 850 25.1 7.4 45.4 47 -3.2 26.2 7.72 0.304
20:45 1021 30.15 850 25.1 7.5 45.5 43 -4.3 24.3 7.77 0.306
20:46 1020 30.12 850 25.1 7.7 45.9 44 -3.7 25.3 7.97 0.314
20:47 1021 30.15 850 25.1 7.8 46 43 -4 24.8 7.99 0.315
20:48 1021 30.15 850 25.1 7.8 46.1 46 -3 26.7 8.05 0.317
20:49 1021 30.15 850 25.1 7.7 45.8 46 -3.3 26 7.87 0.31
20:50 1021 30.15 850 25.1 7.5 45.6 44 -4 24.8 7.78 0.306
20:51 1021 30.15 850 25.1 7.7 45.8 42 -4.4 24.1 7.88 0.31
20:52 1021 30.15 850 25.1 7.9 46.2 44 -3.7 25.4 8.09 0.319
20:53 1021 30.15 850 25.1 7.8 46.1 43 -3.9 25 8.03 0.316
20:54 1021 30.15 850 25.1 7.9 46.1 46 -3.2 26.3 8.06 0.317
20:55 1021 30.15 850 25.1 7.6 45.7 46 -3.2 26.3 7.81 0.307
20:56 1021 30.15 850 25.1 7.3 45.1 47 -3.1 26.4 7.55 0.297
20:57 1021 30.15 850 25.1 7.2 44.9 46 -3.7 25.4 7.42 0.292
20:58 1021 30.15 850 25.1 7.5 45.4 43 -4.4 24.1 7.63 0.3
20:59 1021 30.15 850 25.1 7.9 46.3 41 -4.6 23.8 8.12 0.32
21:00 1021 30.15 850 25.1 8.2 46.8 41 -4.2 24.5 8.36 0.329
21:01 1021 30.15 850 25.1 8.1 46.5 48 -2.2 28 8.28 0.326
21:02 1021 30.15 850 25.1 7.3 45.2 53 -1.7 29 7.57 0.298
21:03 1021 30.15 850 25.1 6.3 43.4 58 -1.3 29.6 6.631 0.261
21:04 1021 30.15 850 25.1 5.4 41.7 61 -1.4 29.5 5.743 0.226
21:05 1021 30.15 850 25.1 4.8 40.7 64 -1.4 29.4 5.173 0.204
21:06 1021 30.15 850 25.1 4.5 40.1 66 -1.2 29.8 4.862 0.191
21:07 1021 30.15 850 25.1 4.1 39.4 68 -1.2 29.8 4.523 0.178
21:08 1021 30.15 850 25.1 3.9 39.1 70 -1.1 30 4.332 0.171
21:09 1021 30.15 850 25.1 3.8 38.8 70 -1.2 29.9 4.207 0.166
21:10 1021 30.15 850 25.1 3.7 38.7 71 -1.1 30 4.094 0.161
21:11 1021 30.15 850 25.1 3.7 38.6 71 -1 30.1 4.084 0.161
21:12 1021 30.15 850 25.1 3.6 38.5 72 -1 30.1 4.005 0.158
21:13 1021 30.15 850 25.1 3.5 38.3 72 -1.1 30 3.937 0.155
21:14 1021 30.15 850 25.1 3.5 38.2 72 -1.1 29.9 3.881 0.153
21:15 1021 30.15 850 25.1 3.5 38.2 71 -1.3 29.7 3.864 0.152
21:16 1021 30.15 850 25.1 3.6 38.5 70 -1.3 29.6 3.96 0.156
21:17 1021 30.15 850 25.1 3.6 38.5 70 -1.4 29.5 4.039 0.159
21:18 1021 30.15 850 25.1 3.7 38.7 69 -1.4 29.4 4.056 0.16
21:19 1021 30.15 850 25.1 3.8 38.8 69 -1.5 29.3 4.13 0.163
21:20 1021 30.15 850 25.1 3.8 38.8 69 -1.4 29.5 4.175 0.164
21:21 1021 30.15 850 25.1 3.8 38.8 69 -1.4 29.4 4.119 0.162
21:22 1021 30.15 850 25.1 3.7 38.7 69 -1.4 29.5 4.068 0.16
21:23 1021 30.15 850 25.1 3.7 38.6 69 -1.4 29.4 4.029 0.159
21:24 1021 30.15 850 25.1 3.6 38.5 70 -1.4 29.5 4.006 0.158
21:25 1021 30.15 850 25.1 3.6 38.5 69 -1.4 29.4 4.007 0.158
21:26 1021 30.15 850 25.1 3.7 38.7 69 -1.4 29.5 4.066 0.16
21:27 1021 30.15 850 25.1 3.7 38.6 69 -1.4 29.4 4.043 0.159
21:28 1021 30.15 850 25.1 3.7 38.6 69 -1.5 29.3 4.072 0.16
21:29 1021 30.15 850 25.1 3.7 38.7 69 -1.5 29.3 4.101 0.161
21:30 1021 30.15 850 25.1 3.8 38.8 68 -1.5 29.3 4.146 0.163
21:31 1021 30.15 850 25.1 3.8 38.9 68 -1.5 29.2 4.192 0.165
21:32 1021 30.15 850 25.1 3.9 39.1 68 -1.5 29.2 4.279 0.168
21:33 1021 30.15 850 25.1 4 39.1 67 -1.5 29.3 4.341 0.171
21:34 1021 30.15 850 25.1 4 39.2 67 -1.5 29.3 4.404 0.173
21:35 1021 30.15 850 25.1 4 39.3 67 -1.5 29.2 4.416 0.174
21:36 1021 30.15 850 25.1 4 39.3 67 -1.5 29.3 4.399 0.173
21:37 1021 30.15 850 25.1 4 39.3 67 -1.6 29.2 4.406 0.173
21:38 1021 30.15 850 25.1 4 39.3 67 -1.6 29.2 4.429 0.174
21:39 1021 30.15 850 25.1 4.1 39.4 66 -1.6 29.1 4.44 0.175
21:40 1021 30.15 850 25.1 4.1 39.4 66 -1.7 28.9 4.469 0.176
21:41 1021 30.15 850 25.1 4.1 39.4 66 -1.7 28.9 4.504 0.177
21:42 1021 30.15 850 25.1 4.2 39.5 65 -1.8 28.8 4.538 0.179
21:43 1021 30.15 850 25.1 4.2 39.5 65 -1.9 28.6 4.566 0.18
21:44 1021 30.15 850 25.1 4.3 39.7 65 -1.8 28.7 4.595 0.181
21:45 1021 30.15 850 25.1 4.3 39.7 65 -1.8 28.7 4.646 0.183
21:46 1021 30.15 850 25.1 4.3 39.7 65 -1.8 28.7 4.607 0.181
21:47 1021 30.15 850 25.1 4.2 39.6 65 -1.7 29 4.585 0.181
21:48 1021 30.15 850 25.1 4.2 39.6 65 -1.8 28.7 4.539 0.179
21:49 1021 30.15 850 25.1 4.2 39.6 64 -1.9 28.6 4.636 0.183
21:50 1021 30.15 850 25.1 4.3 39.7 64 -1.9 28.5 4.676 0.184
21:51 1021 30.15 850 25.1 4.4 39.9 64 -1.7 28.9 4.676 0.184
21:52 1021 30.15 850 25.1 4.3 39.8 65 -1.8 28.8 4.682 0.184
21:53 1021 30.15 850 25.1 4.2 39.6 65 -1.8 28.7 4.648 0.183
21:54 1021 30.15 850 25.1 4.2 39.6 65 -1.8 28.8 4.557 0.179
21:55 1021 30.15 850 25.1 4.1 39.3 67 -1.6 29.1 4.416 0.174
21:56 1021 30.15 850 25.1 3.9 39 65 -2.1 28.3 4.264 0.168
21:57 1021 30.15 850 25.1 3.9 39 64 -2.2 28 4.224 0.166
21:58 1021 30.15 850 25.1 3.9 39 65 -2.2 28.1 4.219 0.166
21:59 1021 30.15 850 25.1 3.8 38.8 64 -2.5 27.6 4.117 0.162
22:00 1021 30.15 850 25.1 3.8 38.8 62 -2.9 26.8 4.089 0.161
22:01 1021 30.15 850 25.1 3.9 39.1 61 -2.9 26.7 4.315 0.17
22:02 1021 30.15 850 25.1 4.1 39.4 60 -3 26.6 4.491 0.177
22:03 1021 30.15 850 25.1 4.3 39.8 59 -3 26.6 4.643 0.183
22:04 1021 30.15 850 25.1 4.5 40.1 59 -2.9 26.9 4.792 0.189
22:05 1021 30.15 850 25.1 4.6 40.2 58 -3 26.7 4.882 0.192
22:06 1021 30.15 850 25.1 4.6 40.3 57 -3.1 26.5 4.928 0.194
22:07 1021 30.15 850 25.1 4.7 40.4 57 -3 26.6 5.02 0.198
22:08 1021 30.15 850 25.1 4.8 40.6 57 -3 26.6 5.11 0.201
22:09 1021 30.15 850 25.1 4.8 40.6 57 -3.1 26.4 5.088 0.2
22:10 1021 30.15 850 25.1 4.8 40.6 56 -3.1 26.3 5.111 0.201
22:11 1021 30.15 850 25.1 4.8 40.6 57 -3 26.6 5.111 0.201
22:12 1021 30.15 851 25.13 4.7 40.5 57 -3.1 26.4 5.066 0.199
22:13 1021 30.15 851 25.13 4.7 40.5 57 -3.1 26.5 5.085 0.2
22:14 1021 30.15 851 25.13 4.7 40.5 57 -3 26.5 5.068 0.2
22:15 1021 30.15 851 25.13 4.7 40.5 57 -3 26.6 5.035 0.198
22:16 1021 30.15 851 25.13 4.7 40.5 58 -2.9 26.8 5.053 0.199
22:17 1021 30.15 851 25.13 4.7 40.4 58 -2.8 26.9 5.042 0.199
22:18 1021 30.15 851 25.13 4.6 40.4 58 -2.9 26.8 5.009 0.197
22:19 1021 30.15 851 25.13 4.7 40.4 58 -2.9 26.8 4.97 0.196
22:20 1021 30.15 851 25.13 4.6 40.3 58 -3 26.5 4.964 0.195
22:21 1021 30.15 851 25.13 4.7 40.4 57 -3.2 26.2 5.005 0.197
22:22 1021 30.15 851 25.13 4.7 40.5 56 -3.3 26.1 5.073 0.2
22:23 1021 30.15 851 25.13 4.8 40.7 55 -3.4 25.9 5.186 0.204
22:24 1021 30.15 851 25.13 4.9 40.8 55 -3.4 25.9 5.243 0.206
22:25 1021 30.15 851 25.13 4.9 40.8 55 -3.4 25.8 5.221 0.206
22:26 1021 30.15 851 25.13 5 40.9 54 -3.5 25.8 5.334 0.21
22:27 1021 30.15 851 25.13 5 41 55 -3.3 26 5.295 0.208
22:28 1021 30.15 851 25.13 5 41 54 -3.4 25.8 5.318 0.209
22:29 1021 30.15 851 25.13 4.9 40.9 54 -3.5 25.7 5.284 0.208
22:30 1021 30.15 851 25.13 5 40.9 54 -3.5 25.6 5.296 0.209
22:31 1021 30.15 851 25.13 4.9 40.9 54 -3.5 25.6 5.262 0.207
22:32 1021 30.15 851 25.13 4.9 40.8 54 -3.6 25.6 5.245 0.206
22:33 1021 30.15 851 25.13 4.9 40.8 55 -3.5 25.7 5.229 0.206
22:34 1021 30.15 851 25.13 4.9 40.9 54 -3.6 25.5 5.285 0.208
22:35 1021 30.15 851 25.13 5 41 54 -3.4 25.8 5.308 0.209
22:36 1021 30.15 851 25.13 4.9 40.8 55 -3.4 25.9 5.28 0.208
22:37 1021 30.15 851 25.13 4.9 40.7 55 -3.5 25.7 5.184 0.204
22:38 1021 30.15 851 25.13 4.8 40.7 56 -3.3 26.1 5.156 0.203
22:39 1021 30.15 851 25.13 4.7 40.5 56 -3.2 26.2 5.065 0.199
22:40 1021 30.15 851 25.13 4.6 40.3 56 -3.3 26 4.958 0.195
22:41 1021 30.15 851 25.13 4.5 40.2 56 -3.6 25.6 4.913 0.193
22:42 1021 30.15 851 25.13 4.5 40.2 55 -3.7 25.3 4.896 0.193
22:43 1021 30.15 851 25.13 4.6 40.2 56 -3.5 25.7 4.953 0.195
22:44 1021 30.15 851 25.13 4.6 40.2 56 -3.5 25.7 4.93 0.194
22:45 1021 30.15 851 25.13 4.5 40.1 55 -3.7 25.4 4.868 0.192
22:46 1021 30.15 851 25.13 4.5 40.2 55 -3.7 25.3 4.891 0.193
22:47 1021 30.15 851 25.13 4.6 40.3 55 -3.7 25.4 4.941 0.195
22:48 1021 30.15 851 25.13 4.6 40.2 55 -3.6 25.6 4.908 0.193
22:49 1021 30.15 851 25.13 4.5 40.1 55 -3.7 25.4 4.862 0.191
22:50 1021 30.15 851 25.13 4.5 40.1 55 -3.7 25.4 4.885 0.192
22:51 1021 30.15 851 25.13 4.5 40.1 54 -3.9 25 4.868 0.192
22:52 1021 30.15 851 25.13 4.5 40.2 55 -3.7 25.3 4.896 0.193
22:53 1021 30.15 851 25.13 4.5 40.1 54 -4 24.8 4.851 0.191
22:54 1021 30.15 851 25.13 4.6 40.3 54 -3.9 24.9 4.908 0.193
22:55 1021 30.15 851 25.13 4.7 40.5 54 -3.9 24.9 5.021 0.198
22:56 1021 30.15 851 25.13 4.7 40.5 53 -4 24.8 5.072 0.2
22:57 1021 30.15 851 25.13 4.8 40.7 53 -4 24.9 5.117 0.201
22:58 1021 30.15 851 25.13 4.8 40.7 53 -4 24.8 5.168 0.203
22:59 1021 30.15 851 25.13 4.9 40.8 53 -3.9 25 5.23 0.206
23:00 1021 30.15 851 25.13 4.9 40.8 54 -3.7 25.3 5.185 0.204
23:01 1021 30.15 851 25.13 4.8 40.6 54 -3.9 25.1 5.095 0.201
23:02 1021 30.15 851 25.13 4.8 40.6 53 -4.1 24.7 5.123 0.202
23:03 1021 30.15 851 25.13 4.8 40.7 53 -3.9 24.9 5.18 0.204
23:04 1021 30.15 851 25.13 4.8 40.7 53 -4.1 24.7 5.151 0.203
23:05 1021 30.15 851 25.13 4.8 40.7 53 -4 24.8 5.14 0.202
23:06 1021 30.15 851 25.13 4.8 40.6 53 -4 24.8 5.168 0.203
23:07 1021 30.15 851 25.13 4.8 40.7 52 -4.1 24.6 5.168 0.203
23:08 1021 30.15 851 25.13 4.8 40.7 53 -3.9 25 5.168 0.203
23:09 1021 30.15 851 25.13 4.8 40.6 52 -4.2 24.5 5.157 0.203
23:10 1021 30.15 851 25.13 4.7 40.5 52 -4.2 24.5 5.089 0.2
23:11 1021 30.15 851 25.13 4.7 40.5 52 -4.2 24.5 5.072 0.2
23:12 1021 30.15 851 25.13 4.7 40.5 53 -4 24.8 5.089 0.2
23:13 1021 30.15 851 25.13 4.8 40.6 53 -3.9 25 5.106 0.201
23:14 1021 30.15 851 25.13 4.7 40.5 54 -3.7 25.3 5.05 0.199
23:15 1021 30.15 851 25.13 4.6 40.4 54 -3.8 25.2 4.97 0.196
23:16 1021 30.15 851 25.13 4.6 40.2 54 -3.9 25 4.948 0.195
23:17 1021 30.15 851 25.13 4.5 40.1 55 -3.8 25.2 4.891 0.193
23:18 1021 30.15 851 25.13 4.5 40.2 54 -3.9 25 4.869 0.192
23:19 1021 30.15 851 25.13 4.5 40.1 54 -3.9 24.9 4.874 0.192
23:20 1021 30.15 851 25.13 4.5 40.1 54 -4 24.7 4.835 0.19
23:21 1021 30.15 851 25.13 4.5 40.1 54 -4 24.8 4.846 0.191
23:22 1021 30.15 851 25.13 4.5 40.1 54 -4 24.8 4.835 0.19
23:23 1021 30.15 851 25.13 4.5 40.1 53 -4.2 24.5 4.806 0.189
23:24 1021 30.15 851 25.13 4.6 40.2 53 -4.3 24.3 4.92 0.194
23:25 1021 30.15 851 25.13 4.7 40.4 53 -4.2 24.4 5.004 0.197
23:26 1021 30.15 851 25.13 4.7 40.5 52 -4.2 24.5 5.084 0.2
23:27 1021 30.15 851 25.13 4.7 40.5 53 -4.1 24.6 5.067 0.199
23:28 1021 30.15 851 25.13 4.7 40.4 54 -4 24.9 5.021 0.198
23:29 1021 30.15 851 25.13 4.6 40.2 54 -4 24.8 4.92 0.194
23:30 1021 30.15 851 25.13 4.4 40 54 -4.1 24.6 4.812 0.189
23:31 1021 30.15 851 25.13 4.4 39.9 54 -4 24.7 4.784 0.188
23:32 1021 30.15 851 25.13 4.4 39.9 55 -3.9 25 4.75 0.187
23:33 1021 30.15 851 25.13 4.3 39.8 55 -4 24.8 4.659 0.183
23:34 1021 30.15 851 25.13 4.2 39.6 55 -3.9 25 4.62 0.182
23:35 1021 30.15 851 25.13 4.2 39.5 56 -3.8 25.2 4.548 0.179
23:36 1021 30.15 851 25.13 4.1 39.4 56 -3.9 24.9 4.514 0.178
23:37 1021 30.15 851 25.13 4.1 39.4 55 -4 24.8 4.463 0.176
23:38 1021 30.15 851 25.13 4.1 39.4 55 -4.1 24.6 4.481 0.176
23:39 1021 30.15 851 25.13 4.2 39.5 54 -4.4 24.2 4.549 0.179
23:40 1021 30.15 851 25.13 4.3 39.8 53 -4.3 24.2 4.639 0.183
23:41 1021 30.15 851 25.13 4.4 39.9 53 -4.3 24.3 4.735 0.186
23:42 1021 30.15 851 25.13 4.4 40 54 -4.1 24.6 4.775 0.188
23:43 1021 30.15 851 25.13 4.4 39.9 53 -4.3 24.2 4.73 0.186
23:44 1021 30.15 851 25.13 4.4 40 53 -4.3 24.3 4.793 0.189
23:45 1021 30.15 851 25.13 4.4 39.9 54 -4.1 24.7 4.753 0.187
23:46 1021 30.15 851 25.13 4.4 39.8 53 -4.4 24.1 4.708 0.185
23:47 1021 30.15 851 25.13 4.4 39.9 52 -4.7 23.6 4.788 0.189
23:48 1021 30.15 851 25.13 4.6 40.2 53 -4.3 24.3 4.901 0.193
23:49 1021 30.15 851 25.13 4.6 40.2 53 -4.2 24.5 4.902 0.193
23:50 1021 30.15 851 25.13 4.5 40.2 53 -4.1 24.6 4.879 0.192
23:51 1022 30.18 851 25.13 4.5 40 54 -3.9 24.9 4.834 0.19
23:52 1022 30.18 851 25.13 4.3 39.8 55 -3.8 25.1 4.71 0.185
23:53 1022 30.18 851 25.13 4.2 39.5 55 -4.1 24.5 4.535 0.179
23:54 1022 30.18 851 25.13 4.1 39.4 56 -3.9 25.1 4.489 0.177
23:55 1022 30.18 851 25.13 4 39.1 57 -3.9 25 4.326 0.17
23:56 1022 30.18 851 25.13 3.8 38.9 57 -3.9 25 4.197 0.165
23:57 1022 30.18 851 25.13 3.7 38.7 58 -3.7 25.3 4.09 0.161
23:58 1022 30.18 851 25.13 3.5 38.4 58 -3.9 25.1 3.909 0.154
23:59 1022 30.18 851 25.13 3.4 38.2 58 -4 24.8 3.79 0.149
24:00 1022 30.18 851 25.13 3.4 38.1 58 -4.1 24.6 3.767 0.148